Darstellungsparameter: Aktuell verwendete Einstellungen:
Skalierung der Graphiken ... ?
xyx+y,   Skalierungsfaktor:      Skalierung: Modus: x, Faktor: 1
Darstellungszeitraum ... ?
Vom - - bis: - -   Zeitraum: 31.08.2019 - 04.09.2019
Min/Max/Avg-Anzeige ... ?
Zeige MMA aktuell
Zeige MMA Monat
Zeige MMA alles
Zeige --A aktuell
Zeige --A Monat
Zeige --A alles
Keine MMA-Anzeige
MMA:
Keine MMA-Graphiken
MMA-Basis: 31.08.2019 - 04.09.2019
Quicknavigation für Darstellung... ?
Tage:      1T, 2T, 3T, 5T -1T -2T -3T -5T +1T +2T +3T +5T
Wochen: 1W, 2W, 3W -1W -2W -3W +1W +2W +3W
Monate: 1M, 3M, 6M -1M -3M -6M +1M +3M +6M
Jahre:    1J, 3J, 5J, 10J -1J -3J -5J -10J +1J +3J +5J +10J
Nutze für die Darstellung ... ?
Originaldaten oder Mittelwerte auf ...
Stundenbasis Tagesbasis Wochenbasis
Monatsbasis Jahresbasis      Datenbasis: Original-Daten
Darstellen als:
Statistik (Auto) Statistik J:M      Darstellung:
Zur Graphik,    zurück zur Übersicht aller Sensoren.
 
Tabellarische Datenbersicht: ?
 
Sensor: Nr:Datum:Temp:Feuchte:Taupunkt:
Aussen-T/F 1 31-08-2019 00:00:00 16.9 C 80 % 13.43 C
2 31-08-2019 00:05:00 16.9 C 80 % 13.43 C
3 31-08-2019 00:10:00 16.9 C 80 % 13.43 C
4 31-08-2019 00:15:00 16.9 C 80 % 13.43 C
5 31-08-2019 00:20:00 16.8 C 80 % 13.33 C
6 31-08-2019 00:25:00 16.7 C 80 % 13.23 C
7 31-08-2019 00:30:00 16.7 C 81 % 13.43 C
8 31-08-2019 00:35:00 16.6 C 82 % 13.52 C
9 31-08-2019 00:40:00 16.5 C 82 % 13.42 C
10 31-08-2019 00:45:00 16.4 C 82 % 13.32 C
11 31-08-2019 00:50:00 16.3 C 82 % 13.22 C
12 31-08-2019 00:55:00 16.2 C 83 % 13.31 C
13 31-08-2019 01:00:00 16.2 C 83 % 13.31 C
14 31-08-2019 01:05:00 16.1 C 83 % 13.21 C
15 31-08-2019 01:10:00 16 C 84 % 13.3 C
16 31-08-2019 01:15:00 15.9 C 84 % 13.2 C
17 31-08-2019 01:20:00 15.8 C 84 % 13.1 C
18 31-08-2019 01:25:00 15.8 C 84 % 13.1 C
19 31-08-2019 01:30:00 15.8 C 84 % 13.1 C
20 31-08-2019 01:35:00 15.7 C 84 % 13.01 C
21 31-08-2019 01:40:00 15.7 C 85 % 13.19 C
22 31-08-2019 01:45:00 15.7 C 85 % 13.19 C
23 31-08-2019 01:50:00 15.6 C 85 % 13.09 C
24 31-08-2019 01:55:00 15.6 C 85 % 13.09 C
25 31-08-2019 02:00:00 15.5 C 85 % 12.99 C
Sensor: Nr:Datum:Temp:Feuchte:Taupunkt:
Aussen-T/F 26 31-08-2019 02:05:00 15.4 C 85 % 12.89 C
27 31-08-2019 02:10:00 15.3 C 86 % 12.97 C
28 31-08-2019 02:15:00 15.3 C 86 % 12.97 C
29 31-08-2019 02:20:00 15.3 C 86 % 12.97 C
30 31-08-2019 02:25:00 15.2 C 86 % 12.88 C
31 31-08-2019 02:30:00 15.2 C 86 % 12.88 C
32 31-08-2019 02:35:00 15.2 C 87 % 13.05 C
33 31-08-2019 02:40:00 15.1 C 87 % 12.95 C
34 31-08-2019 02:45:00 15.1 C 87 % 12.95 C
35 31-08-2019 02:50:00 15 C 87 % 12.86 C
36 31-08-2019 02:55:00 15 C 87 % 12.86 C
37 31-08-2019 03:00:00 15 C 88 % 13.03 C
38 31-08-2019 03:05:00 14.9 C 88 % 12.93 C
39 31-08-2019 03:10:00 14.9 C 88 % 12.93 C
40 31-08-2019 03:15:00 14.8 C 88 % 12.83 C
41 31-08-2019 03:20:00 14.8 C 88 % 12.83 C
42 31-08-2019 03:25:00 14.7 C 88 % 12.73 C
43 31-08-2019 03:30:00 14.7 C 89 % 12.91 C
44 31-08-2019 03:35:00 14.7 C 89 % 12.91 C
45 31-08-2019 03:40:00 14.7 C 89 % 12.91 C
46 31-08-2019 03:45:00 14.6 C 89 % 12.81 C
47 31-08-2019 03:50:00 14.6 C 89 % 12.81 C
48 31-08-2019 03:55:00 14.6 C 89 % 12.81 C
49 31-08-2019 04:00:00 14.5 C 89 % 12.71 C
50 31-08-2019 04:05:00 14.4 C 90 % 12.78 C
Sensor: Nr:Datum:Temp:Feuchte:Taupunkt:
Aussen-T/F 51 31-08-2019 04:10:00 14.4 C 90 % 12.78 C
52 31-08-2019 04:15:00 14.4 C 90 % 12.78 C
53 31-08-2019 04:20:00 14.4 C 90 % 12.78 C
54 31-08-2019 04:25:00 14.3 C 90 % 12.68 C
55 31-08-2019 04:30:00 14.3 C 90 % 12.68 C
56 31-08-2019 04:35:00 14.3 C 90 % 12.68 C
57 31-08-2019 04:40:00 14.2 C 90 % 12.58 C
58 31-08-2019 04:45:00 14.2 C 91 % 12.75 C
59 31-08-2019 04:50:00 14.2 C 91 % 12.75 C
60 31-08-2019 04:55:00 14.2 C 91 % 12.75 C
61 31-08-2019 05:00:00 14.2 C 91 % 12.75 C
62 31-08-2019 05:05:00 14.1 C 91 % 12.65 C
63 31-08-2019 05:10:00 14.1 C 91 % 12.65 C
64 31-08-2019 05:15:00 14.1 C 91 % 12.65 C
65 31-08-2019 05:20:00 14.1 C 91 % 12.65 C
66 31-08-2019 05:25:00 14.1 C 92 % 12.82 C
67 31-08-2019 05:30:00 14.1 C 92 % 12.82 C
68 31-08-2019 05:35:00 14.2 C 92 % 12.92 C
69 31-08-2019 05:40:00 14.2 C 92 % 12.92 C
70 31-08-2019 05:45:00 14.2 C 92 % 12.92 C
71 31-08-2019 05:50:00 14.2 C 92 % 12.92 C
72 31-08-2019 05:55:00 14.2 C 92 % 12.92 C
73 31-08-2019 06:00:00 14.3 C 92 % 13.02 C
74 31-08-2019 06:05:00 14.3 C 92 % 13.02 C
75 31-08-2019 06:10:00 14.3 C 92 % 13.02 C
Sensor: Nr:Datum:Temp:Feuchte:Taupunkt:
Aussen-T/F 76 31-08-2019 06:15:00 14.2 C 92 % 12.92 C
77 31-08-2019 06:20:00 14.2 C 92 % 12.92 C
78 31-08-2019 06:25:00 14.1 C 92 % 12.82 C
79 31-08-2019 06:30:00 14.1 C 92 % 12.82 C
80 31-08-2019 06:35:00 14 C 92 % 12.72 C
81 31-08-2019 06:40:00 14 C 92 % 12.72 C
82 31-08-2019 06:45:00 13.9 C 92 % 12.62 C
83 31-08-2019 06:50:00 13.9 C 92 % 12.62 C
84 31-08-2019 06:55:00 13.9 C 92 % 12.62 C
85 31-08-2019 07:00:00 13.9 C 92 % 12.62 C
86 31-08-2019 07:05:00 13.9 C 92 % 12.62 C
87 31-08-2019 07:10:00 13.9 C 92 % 12.62 C
88 31-08-2019 07:15:00 14 C 93 % 12.89 C
89 31-08-2019 07:20:00 14 C 93 % 12.89 C
90 31-08-2019 07:25:00 14.1 C 93 % 12.99 C
91 31-08-2019 07:30:00 14.1 C 93 % 12.99 C
92 31-08-2019 07:35:00 14.1 C 93 % 12.99 C
93 31-08-2019 07:40:00 14.2 C 93 % 13.08 C
94 31-08-2019 07:45:00 14.3 C 93 % 13.18 C
95 31-08-2019 07:50:00 14.4 C 93 % 13.28 C
96 31-08-2019 07:55:00 14.4 C 92 % 13.12 C
97 31-08-2019 08:00:00 14.5 C 92 % 13.22 C
98 31-08-2019 08:05:00 14.5 C 92 % 13.22 C
99 31-08-2019 08:10:00 14.6 C 92 % 13.32 C
100 31-08-2019 08:15:00 14.6 C 92 % 13.32 C
Sensor: Nr:Datum:Temp:Feuchte:Taupunkt:
Aussen-T/F 101 31-08-2019 08:20:00 14.7 C 93 % 13.58 C
102 31-08-2019 08:25:00 14.7 C 93 % 13.58 C
103 31-08-2019 08:30:00 14.8 C 93 % 13.68 C
104 31-08-2019 08:35:00 14.8 C 93 % 13.68 C
105 31-08-2019 08:40:00 14.9 C 93 % 13.78 C
106 31-08-2019 08:45:00 14.9 C 93 % 13.78 C
107 31-08-2019 08:50:00 15.1 C 93 % 13.98 C
108 31-08-2019 08:55:00 15.1 C 93 % 13.98 C
109 31-08-2019 09:00:00 15.2 C 93 % 14.08 C
110 31-08-2019 09:05:00 15.3 C 93 % 14.18 C
111 31-08-2019 09:10:00 15.4 C 93 % 14.27 C
112 31-08-2019 09:15:00 15.6 C 93 % 14.47 C
113 31-08-2019 09:20:00 15.7 C 92 % 14.4 C
114 31-08-2019 09:25:00 15.8 C 92 % 14.5 C
115 31-08-2019 09:30:00 15.9 C 92 % 14.6 C
116 31-08-2019 09:35:00 16.1 C 92 % 14.8 C
117 31-08-2019 09:40:00 16.2 C 92 % 14.9 C
118 31-08-2019 09:45:00 16.3 C 92 % 15 C
119 31-08-2019 09:50:00 16.5 C 92 % 15.2 C
120 31-08-2019 09:55:00 16.7 C 91 % 15.22 C
121 31-08-2019 10:00:00 16.8 C 92 % 15.49 C
122 31-08-2019 10:05:00 16.9 C 91 % 15.42 C
123 31-08-2019 10:10:00 17.1 C 91 % 15.62 C
124 31-08-2019 10:15:00 17.2 C 90 % 15.55 C
125 31-08-2019 10:20:00 17.4 C 90 % 15.74 C
Sensor: Nr:Datum:Temp:Feuchte:Taupunkt:
Aussen-T/F 126 31-08-2019 10:25:00 17.6 C 89 % 15.77 C
127 31-08-2019 10:30:00 17.8 C 89 % 15.96 C
128 31-08-2019 10:35:00 18.1 C 88 % 16.08 C
129 31-08-2019 10:40:00 18.3 C 88 % 16.28 C
130 31-08-2019 10:45:00 18.6 C 87 % 16.39 C
131 31-08-2019 10:50:00 18.8 C 87 % 16.59 C
132 31-08-2019 10:55:00 19 C 86 % 16.6 C
133 31-08-2019 11:00:00 19.3 C 85 % 16.72 C
134 31-08-2019 11:05:00 19.6 C 84 % 16.82 C
135 31-08-2019 11:10:00 19.7 C 82 % 16.54 C
136 31-08-2019 11:15:00 20 C 83 % 17.02 C
137 31-08-2019 11:20:00 20.3 C 83 % 17.32 C
138 31-08-2019 11:25:00 20.5 C 81 % 17.13 C
139 31-08-2019 11:30:00 20.8 C 82 % 17.61 C
140 31-08-2019 11:35:00 21 C 80 % 17.42 C
141 31-08-2019 11:40:00 21.2 C 79 % 17.41 C
142 31-08-2019 11:45:00 21.4 C 79 % 17.61 C
143 31-08-2019 11:50:00 21.6 C 79 % 17.8 C
144 31-08-2019 11:55:00 21.8 C 78 % 17.79 C
145 31-08-2019 12:00:00 22.1 C 77 % 17.88 C
146 31-08-2019 12:05:00 22.3 C 76 % 17.86 C
147 31-08-2019 12:10:00 22.6 C 75 % 17.94 C
148 31-08-2019 12:15:00 22.8 C 75 % 18.14 C
149 31-08-2019 12:20:00 23.1 C 73 % 17.99 C
150 31-08-2019 12:25:00 23.4 C 72 % 18.06 C
Sensor: Nr:Datum:Temp:Feuchte:Taupunkt:
Aussen-T/F 151 31-08-2019 12:30:00 23.8 C 74 % 18.89 C
152 31-08-2019 12:35:00 24.1 C 73 % 18.96 C
153 31-08-2019 12:40:00 24.3 C 74 % 19.37 C
154 31-08-2019 12:45:00 24.5 C 71 % 18.89 C
155 31-08-2019 12:50:00 24.9 C 71 % 19.28 C
156 31-08-2019 12:55:00 25.6 C 66 % 18.77 C
157 31-08-2019 13:00:00 26.3 C 62 % 18.44 C
158 31-08-2019 13:05:00 26.9 C 62 % 19 C
159 31-08-2019 13:10:00 27.4 C 58 % 18.4 C
160 31-08-2019 13:15:00 27.9 C 55 % 18.02 C
161 31-08-2019 13:20:00 28.2 C 60 % 19.69 C
162 31-08-2019 13:25:00 28.4 C 54 % 18.19 C
163 31-08-2019 13:30:00 28.8 C 53 % 18.26 C
164 31-08-2019 13:35:00 29.2 C 52 % 18.33 C
165 31-08-2019 13:40:00 29.5 C 49 % 17.66 C
166 31-08-2019 13:45:00 29.7 C 49 % 17.84 C
167 31-08-2019 13:50:00 29.8 C 50 % 18.25 C
168 31-08-2019 13:55:00 29.8 C 51 % 18.57 C
169 31-08-2019 14:00:00 29.7 C 49 % 17.84 C
170 31-08-2019 14:05:00 29.8 C 50 % 18.25 C
171 31-08-2019 14:10:00 29.9 C 48 % 17.7 C
172 31-08-2019 14:15:00 30 C 48 % 17.79 C
173 31-08-2019 14:20:00 30.1 C 47 % 17.54 C
174 31-08-2019 14:25:00 30.3 C 47 % 17.73 C
175 31-08-2019 14:30:00 30.4 C 49 % 18.48 C
Sensor: Nr:Datum:Temp:Feuchte:Taupunkt:
Aussen-T/F 176 31-08-2019 14:35:00 30.6 C 47 % 18 C
177 31-08-2019 14:40:00 30.7 C 47 % 18.09 C
178 31-08-2019 14:45:00 30.8 C 47 % 18.18 C
179 31-08-2019 14:50:00 31 C 44 % 17.31 C
180 31-08-2019 14:55:00 31.1 C 45 % 17.76 C
181 31-08-2019 15:00:00 31 C 44 % 17.31 C
182 31-08-2019 15:05:00 31.1 C 45 % 17.76 C
183 31-08-2019 15:10:00 31.1 C 44 % 17.4 C
184 31-08-2019 15:15:00 31.1 C 44 % 17.4 C
185 31-08-2019 15:20:00 31.2 C 43 % 17.13 C
186 31-08-2019 15:25:00 31.3 C 42 % 16.85 C
187 31-08-2019 15:30:00 31.4 C 43 % 17.31 C
188 31-08-2019 15:35:00 31.6 C 44 % 17.85 C
189 31-08-2019 15:40:00 31.7 C 43 % 17.58 C
190 31-08-2019 15:45:00 31.8 C 43 % 17.67 C
191 31-08-2019 15:50:00 31.9 C 44 % 18.12 C
192 31-08-2019 15:55:00 32 C 41 % 17.09 C
193 31-08-2019 16:00:00 32 C 41 % 17.09 C
194 31-08-2019 16:05:00 32 C 44 % 18.21 C
195 31-08-2019 16:10:00 31.9 C 44 % 18.12 C
196 31-08-2019 16:15:00 32.1 C 46 % 19.02 C
197 31-08-2019 16:20:00 32.1 C 43 % 17.94 C
198 31-08-2019 16:25:00 32.3 C 43 % 18.12 C
199 31-08-2019 16:30:00 32.7 C 41 % 17.72 C
200 31-08-2019 16:35:00 32.8 C 41 % 17.81 C
Sensor: Nr:Datum:Temp:Feuchte:Taupunkt:
Aussen-T/F 201 31-08-2019 16:40:00 32.8 C 41 % 17.81 C
202 31-08-2019 16:45:00 32.8 C 41 % 17.81 C
203 31-08-2019 16:50:00 33 C 42 % 18.37 C
204 31-08-2019 16:55:00 33.3 C 41 % 18.25 C
205 31-08-2019 17:00:00 33.4 C 40 % 17.95 C
206 31-08-2019 17:05:00 33.5 C 41 % 18.43 C
207 31-08-2019 17:10:00 33.7 C 40 % 18.22 C
208 31-08-2019 17:15:00 34 C 41 % 18.88 C
209 31-08-2019 17:20:00 34.3 C 38 % 17.93 C
210 31-08-2019 17:25:00 34.2 C 41 % 19.06 C
211 31-08-2019 17:30:00 34.2 C 39 % 18.26 C
212 31-08-2019 17:35:00 34.1 C 39 % 18.17 C
213 31-08-2019 17:40:00 33.8 C 40 % 18.31 C
214 31-08-2019 17:45:00 33.7 C 40 % 18.22 C
215 31-08-2019 17:50:00 33.8 C 41 % 18.7 C
216 31-08-2019 17:55:00 34 C 38 % 17.67 C
217 31-08-2019 18:00:00 34 C 38 % 17.67 C
218 31-08-2019 18:05:00 34.1 C 39 % 18.17 C
219 31-08-2019 18:10:00 34 C 42 % 19.27 C
220 31-08-2019 18:15:00 34 C 38 % 17.67 C
221 31-08-2019 18:20:00 33.9 C 39 % 17.99 C
222 31-08-2019 18:25:00 33.6 C 39 % 17.73 C
223 31-08-2019 18:30:00 33.5 C 39 % 17.64 C
224 31-08-2019 18:35:00 33.4 C 40 % 17.95 C
225 31-08-2019 18:40:00 33.6 C 39 % 17.73 C
Sensor: Nr:Datum:Temp:Feuchte:Taupunkt:
Aussen-T/F 226 31-08-2019 18:45:00 33.6 C 40 % 18.13 C
227 31-08-2019 18:50:00 33.6 C 45 % 20.02 C
228 31-08-2019 18:55:00 33.3 C 42 % 18.64 C
229 31-08-2019 19:00:00 33.1 C 41 % 18.08 C
230 31-08-2019 19:05:00 33.1 C 46 % 19.92 C
231 31-08-2019 19:10:00 32.9 C 45 % 19.39 C
232 31-08-2019 19:15:00 32.5 C 46 % 19.38 C
233 31-08-2019 19:20:00 32.1 C 48 % 19.7 C
234 31-08-2019 19:25:00 31.7 C 48 % 19.34 C
235 31-08-2019 19:30:00 31.2 C 49 % 19.21 C
236 31-08-2019 19:35:00 30.6 C 50 % 18.99 C
237 31-08-2019 19:40:00 30 C 52 % 19.07 C
238 31-08-2019 19:45:00 29.4 C 53 % 18.82 C
239 31-08-2019 19:50:00 28.8 C 53 % 18.26 C
240 31-08-2019 19:55:00 28.2 C 55 % 18.3 C
241 31-08-2019 20:00:00 27.7 C 57 % 18.41 C
242 31-08-2019 20:05:00 27.2 C 57 % 17.94 C
243 31-08-2019 20:10:00 26.8 C 58 % 17.84 C
244 31-08-2019 20:15:00 26.4 C 59 % 17.74 C
245 31-08-2019 20:20:00 26.1 C 59 % 17.46 C
246 31-08-2019 20:25:00 25.8 C 60 % 17.45 C
247 31-08-2019 20:30:00 25.6 C 60 % 17.26 C
248 31-08-2019 20:35:00 25.4 C 60 % 17.07 C
249 31-08-2019 20:40:00 25.2 C 62 % 17.4 C
250 31-08-2019 20:45:00 25 C 62 % 17.21 C
Sensor: Nr:Datum:Temp:Feuchte:Taupunkt:
Aussen-T/F 251 31-08-2019 20:50:00 24.8 C 63 % 17.28 C
252 31-08-2019 20:55:00 24.7 C 63 % 17.18 C
253 31-08-2019 21:00:00 24.6 C 63 % 17.09 C
254 31-08-2019 21:05:00 24.5 C 64 % 17.24 C
255 31-08-2019 21:10:00 24.4 C 64 % 17.15 C
256 31-08-2019 21:15:00 24.4 C 64 % 17.15 C
257 31-08-2019 21:20:00 24.4 C 63 % 16.9 C
258 31-08-2019 21:25:00 24.5 C 64 % 17.24 C
259 31-08-2019 21:30:00 24.6 C 63 % 17.09 C
260 31-08-2019 21:35:00 24.6 C 64 % 17.34 C
261 31-08-2019 21:40:00 24.6 C 66 % 17.83 C
262 31-08-2019 21:45:00 25.2 C 58 % 16.35 C
263 31-08-2019 21:50:00 26.2 C 56 % 16.73 C
264 31-08-2019 21:55:00 26.5 C 55 % 16.72 C
265 31-08-2019 22:00:00 26.6 C 55 % 16.82 C
266 31-08-2019 22:05:00 26.4 C 56 % 16.92 C
267 31-08-2019 22:10:00 26.2 C 62 % 18.34 C
268 31-08-2019 22:15:00 25.9 C 64 % 18.57 C
269 31-08-2019 22:20:00 25.5 C 68 % 19.16 C
270 31-08-2019 22:25:00 25.1 C 70 % 19.24 C
271 31-08-2019 22:30:00 24.5 C 72 % 19.12 C
272 31-08-2019 22:35:00 23.9 C 75 % 19.2 C
273 31-08-2019 22:40:00 23.4 C 78 % 19.34 C
274 31-08-2019 22:45:00 22.9 C 80 % 19.26 C
275 31-08-2019 22:50:00 22.5 C 82 % 19.27 C
Sensor: Nr:Datum:Temp:Feuchte:Taupunkt:
Aussen-T/F 276 31-08-2019 22:55:00 22.1 C 84 % 19.27 C
277 31-08-2019 23:00:00 21.8 C 85 % 19.16 C
278 31-08-2019 23:05:00 21.6 C 86 % 19.16 C
279 31-08-2019 23:10:00 21.3 C 86 % 18.86 C
280 31-08-2019 23:15:00 21.1 C 86 % 18.67 C
281 31-08-2019 23:20:00 20.8 C 87 % 18.56 C
282 31-08-2019 23:25:00 20.6 C 87 % 18.36 C
283 31-08-2019 23:30:00 20.4 C 88 % 18.34 C
284 31-08-2019 23:35:00 20.3 C 88 % 18.25 C
285 31-08-2019 23:40:00 20.2 C 89 % 18.33 C
286 31-08-2019 23:45:00 20.2 C 90 % 18.51 C
287 31-08-2019 23:50:00 20.1 C 89 % 18.23 C
288 31-08-2019 23:55:00 19.9 C 90 % 18.21 C
289 01-09-2019 00:00:00 19.9 C 91 % 18.39 C
290 01-09-2019 00:05:00 19.9 C 91 % 18.39 C
291 01-09-2019 00:10:00 19.9 C 91 % 18.39 C
292 01-09-2019 00:15:00 19.8 C 91 % 18.29 C
293 01-09-2019 00:20:00 19.8 C 91 % 18.29 C
294 01-09-2019 00:25:00 19.7 C 91 % 18.19 C
295 01-09-2019 00:30:00 19.7 C 91 % 18.19 C
296 01-09-2019 00:35:00 19.6 C 91 % 18.09 C
297 01-09-2019 00:40:00 19.5 C 91 % 17.99 C
298 01-09-2019 00:45:00 19.4 C 92 % 18.07 C
299 01-09-2019 00:50:00 19.4 C 92 % 18.07 C
300 01-09-2019 00:55:00 19.4 C 92 % 18.07 C
Sensor: Nr:Datum:Temp:Feuchte:Taupunkt:
Aussen-T/F 301 01-09-2019 01:00:00 19.4 C 92 % 18.07 C
302 01-09-2019 01:05:00 19.4 C 92 % 18.07 C
303 01-09-2019 01:10:00 19.4 C 92 % 18.07 C
304 01-09-2019 01:15:00 19.4 C 92 % 18.07 C
305 01-09-2019 01:20:00 19.4 C 91 % 17.89 C
306 01-09-2019 01:25:00 19.3 C 91 % 17.79 C
307 01-09-2019 01:30:00 19.3 C 91 % 17.79 C
308 01-09-2019 01:35:00 19.3 C 91 % 17.79 C
309 01-09-2019 01:40:00 19.3 C 90 % 17.62 C
310 01-09-2019 01:45:00 19.3 C 90 % 17.62 C
311 01-09-2019 01:50:00 19.3 C 90 % 17.62 C
312 01-09-2019 01:55:00 19.3 C 89 % 17.44 C
313 01-09-2019 02:00:00 19.3 C 89 % 17.44 C
314 01-09-2019 02:05:00 19.3 C 88 % 17.26 C
315 01-09-2019 02:10:00 19.3 C 88 % 17.26 C
316 01-09-2019 02:15:00 19.2 C 87 % 16.98 C
317 01-09-2019 02:20:00 19.3 C 86 % 16.9 C
318 01-09-2019 02:25:00 19.2 C 85 % 16.62 C
319 01-09-2019 02:30:00 19.2 C 85 % 16.62 C
320 01-09-2019 02:35:00 19.1 C 85 % 16.52 C
321 01-09-2019 02:40:00 19 C 84 % 16.24 C
322 01-09-2019 02:45:00 18.9 C 84 % 16.14 C
323 01-09-2019 02:50:00 18.8 C 85 % 16.23 C
324 01-09-2019 02:55:00 18.7 C 85 % 16.13 C
325 01-09-2019 03:00:00 18.6 C 85 % 16.03 C
Sensor: Nr:Datum:Temp:Feuchte:Taupunkt:
Aussen-T/F 326 01-09-2019 03:05:00 18.4 C 86 % 16.02 C
327 01-09-2019 03:10:00 18.4 C 86 % 16.02 C
328 01-09-2019 03:15:00 18.3 C 86 % 15.92 C
329 01-09-2019 03:20:00 18.3 C 86 % 15.92 C
330 01-09-2019 03:25:00 18.3 C 86 % 15.92 C
331 01-09-2019 03:30:00 18.2 C 86 % 15.82 C
332 01-09-2019 03:35:00 18.2 C 84 % 15.45 C
333 01-09-2019 03:40:00 18.1 C 84 % 15.35 C
334 01-09-2019 03:45:00 18.3 C 81 % 14.98 C
335 01-09-2019 03:50:00 18.4 C 80 % 14.89 C
336 01-09-2019 03:55:00 18.4 C 79 % 14.69 C
337 01-09-2019 04:00:00 18.3 C 79 % 14.6 C
338 01-09-2019 04:05:00 18.1 C 80 % 14.6 C
339 01-09-2019 04:10:00 18 C 79 % 14.31 C
340 01-09-2019 04:15:00 18.2 C 80 % 14.69 C
341 01-09-2019 04:20:00 18.1 C 79 % 14.4 C
342 01-09-2019 04:25:00 18.1 C 80 % 14.6 C
343 01-09-2019 04:30:00 17.9 C 80 % 14.4 C
344 01-09-2019 04:35:00 17.8 C 80 % 14.31 C
345 01-09-2019 04:40:00 17.7 C 81 % 14.4 C
346 01-09-2019 04:45:00 17.6 C 81 % 14.3 C
347 01-09-2019 04:50:00 17.4 C 81 % 14.11 C
348 01-09-2019 04:55:00 17.4 C 82 % 14.3 C
349 01-09-2019 05:00:00 17.4 C 82 % 14.3 C
350 01-09-2019 05:05:00 17.4 C 81 % 14.11 C
Sensor: Nr:Datum:Temp:Feuchte:Taupunkt:
Aussen-T/F 351 01-09-2019 05:10:00 17.6 C 80 % 14.11 C
352 01-09-2019 05:15:00 17.7 C 80 % 14.21 C
353 01-09-2019 05:20:00 17.8 C 79 % 14.11 C
354 01-09-2019 05:25:00 17.9 C 79 % 14.21 C
355 01-09-2019 05:30:00 18.1 C 78 % 14.21 C
356 01-09-2019 05:35:00 18.1 C 78 % 14.21 C
357 01-09-2019 05:40:00 18.1 C 78 % 14.21 C
358 01-09-2019 05:45:00 18.1 C 78 % 14.21 C
359 01-09-2019 05:50:00 18 C 78 % 14.11 C
360 01-09-2019 05:55:00 17.9 C 78 % 14.01 C
361 01-09-2019 06:00:00 17.8 C 78 % 13.91 C
362 01-09-2019 06:05:00 17.8 C 78 % 13.91 C
363 01-09-2019 06:10:00 17.7 C 78 % 13.82 C
364 01-09-2019 06:15:00 17.7 C 78 % 13.82 C
365 01-09-2019 06:20:00 17.7 C 78 % 13.82 C
366 01-09-2019 06:25:00 17.6 C 79 % 13.92 C
367 01-09-2019 06:30:00 17.4 C 79 % 13.72 C
368 01-09-2019 06:35:00 17.2 C 80 % 13.72 C
369 01-09-2019 06:40:00 17 C 81 % 13.72 C
370 01-09-2019 06:45:00 16.8 C 81 % 13.52 C
371 01-09-2019 06:50:00 16.6 C 82 % 13.52 C
372 01-09-2019 06:55:00 16.4 C 83 % 13.51 C
373 01-09-2019 07:00:00 16.2 C 84 % 13.5 C
374 01-09-2019 07:05:00 16.1 C 84 % 13.4 C
375 01-09-2019 07:10:00 16 C 85 % 13.48 C
Sensor: Nr:Datum:Temp:Feuchte:Taupunkt:
Aussen-T/F 376 01-09-2019 07:15:00 15.9 C 85 % 13.38 C
377 01-09-2019 07:20:00 15.9 C 85 % 13.38 C
378 01-09-2019 07:25:00 15.9 C 86 % 13.56 C
379 01-09-2019 07:30:00 15.9 C 86 % 13.56 C
380 01-09-2019 07:35:00 15.9 C 87 % 13.74 C
381 01-09-2019 07:40:00 16.1 C 87 % 13.94 C
382 01-09-2019 07:45:00 16.2 C 87 % 14.03 C
383 01-09-2019 07:50:00 16.4 C 86 % 14.05 C
384 01-09-2019 07:55:00 16.7 C 86 % 14.35 C
385 01-09-2019 08:00:00 16.8 C 84 % 14.08 C
386 01-09-2019 08:05:00 17 C 84 % 14.28 C
387 01-09-2019 08:10:00 17.2 C 84 % 14.47 C
388 01-09-2019 08:15:00 17.4 C 84 % 14.67 C
389 01-09-2019 08:20:00 17.4 C 82 % 14.3 C
390 01-09-2019 08:25:00 17.6 C 82 % 14.49 C
391 01-09-2019 08:30:00 17.7 C 82 % 14.59 C
392 01-09-2019 08:35:00 17.7 C 82 % 14.59 C
393 01-09-2019 08:40:00 17.8 C 82 % 14.69 C
394 01-09-2019 08:45:00 17.7 C 81 % 14.4 C
395 01-09-2019 08:50:00 17.7 C 82 % 14.59 C
396 01-09-2019 08:55:00 17.8 C 82 % 14.69 C
397 01-09-2019 09:00:00 17.8 C 82 % 14.69 C
398 01-09-2019 09:05:00 17.8 C 82 % 14.69 C
399 01-09-2019 09:10:00 17.8 C 81 % 14.5 C
400 01-09-2019 09:15:00 17.9 C 81 % 14.59 C
Sensor: Nr:Datum:Temp:Feuchte:Taupunkt:
Aussen-T/F 401 01-09-2019 09:20:00 18 C 81 % 14.69 C
402 01-09-2019 09:25:00 18.1 C 80 % 14.6 C
403 01-09-2019 09:30:00 18.1 C 81 % 14.79 C
404 01-09-2019 09:35:00 18.2 C 81 % 14.89 C
405 01-09-2019 09:40:00 18.2 C 79 % 14.5 C
406 01-09-2019 09:45:00 18.4 C 80 % 14.89 C
407 01-09-2019 09:50:00 18.6 C 79 % 14.89 C
408 01-09-2019 09:55:00 18.7 C 79 % 14.99 C
409 01-09-2019 10:00:00 18.7 C 78 % 14.79 C
410 01-09-2019 10:05:00 18.8 C 78 % 14.88 C
411 01-09-2019 10:10:00 18.9 C 77 % 14.78 C
412 01-09-2019 10:15:00 18.9 C 77 % 14.78 C
413 01-09-2019 10:20:00 18.9 C 76 % 14.58 C
414 01-09-2019 10:25:00 19 C 77 % 14.88 C
415 01-09-2019 10:30:00 19 C 76 % 14.68 C
416 01-09-2019 10:35:00 19.1 C 76 % 14.77 C
417 01-09-2019 10:40:00 19.2 C 76 % 14.87 C
418 01-09-2019 10:45:00 19.4 C 76 % 15.06 C
419 01-09-2019 10:50:00 19.6 C 75 % 15.05 C
420 01-09-2019 10:55:00 19.8 C 76 % 15.45 C
421 01-09-2019 11:00:00 19.9 C 75 % 15.34 C
422 01-09-2019 11:05:00 19.9 C 74 % 15.13 C
423 01-09-2019 11:10:00 19.9 C 75 % 15.34 C
424 01-09-2019 11:15:00 19.9 C 75 % 15.34 C
425 01-09-2019 11:20:00 20 C 74 % 15.23 C
Sensor: Nr:Datum:Temp:Feuchte:Taupunkt:
Aussen-T/F 426 01-09-2019 11:25:00 20.1 C 73 % 15.11 C
427 01-09-2019 11:30:00 20.2 C 74 % 15.42 C
428 01-09-2019 11:35:00 20.2 C 74 % 15.42 C
429 01-09-2019 11:40:00 20.1 C 73 % 15.11 C
430 01-09-2019 11:45:00 20.1 C 74 % 15.32 C
431 01-09-2019 11:50:00 20 C 74 % 15.23 C
432 01-09-2019 11:55:00 20 C 76 % 15.64 C
433 01-09-2019 12:00:00 20 C 75 % 15.43 C
434 01-09-2019 12:05:00 19.9 C 75 % 15.34 C
435 01-09-2019 12:10:00 19.8 C 75 % 15.24 C
436 01-09-2019 12:15:00 19.7 C 76 % 15.35 C
437 01-09-2019 12:20:00 19.6 C 76 % 15.26 C
438 01-09-2019 12:25:00 19.6 C 76 % 15.26 C
439 01-09-2019 12:30:00 19.8 C 76 % 15.45 C
440 01-09-2019 12:35:00 19.9 C 75 % 15.34 C
441 01-09-2019 12:40:00 20.1 C 75 % 15.53 C
442 01-09-2019 12:45:00 20.4 C 74 % 15.61 C
443 01-09-2019 12:50:00 20.8 C 72 % 15.57 C
444 01-09-2019 12:55:00 21 C 73 % 15.98 C
445 01-09-2019 13:00:00 20.9 C 72 % 15.66 C
446 01-09-2019 13:05:00 20.7 C 73 % 15.69 C
447 01-09-2019 13:10:00 20.3 C 77 % 16.14 C
448 01-09-2019 13:15:00 19.8 C 79 % 16.05 C
449 01-09-2019 13:20:00 19.6 C 80 % 16.06 C
450 01-09-2019 13:25:00 19.3 C 80 % 15.76 C
Sensor: Nr:Datum:Temp:Feuchte:Taupunkt:
Aussen-T/F 451 01-09-2019 13:30:00 19.3 C 79 % 15.57 C
452 01-09-2019 13:35:00 19.2 C 80 % 15.67 C
453 01-09-2019 13:40:00 19.3 C 80 % 15.76 C
454 01-09-2019 13:45:00 19.3 C 79 % 15.57 C
455 01-09-2019 13:50:00 19.3 C 78 % 15.37 C
456 01-09-2019 13:55:00 19.3 C 78 % 15.37 C
457 01-09-2019 14:00:00 19.3 C 77 % 15.17 C
458 01-09-2019 14:05:00 19.4 C 77 % 15.27 C
459 01-09-2019 14:10:00 19.5 C 77 % 15.36 C
460 01-09-2019 14:15:00 19.8 C 77 % 15.65 C
461 01-09-2019 14:20:00 19.9 C 76 % 15.54 C
462 01-09-2019 14:25:00 20.1 C 77 % 15.94 C
463 01-09-2019 14:30:00 20.3 C 77 % 16.14 C
464 01-09-2019 14:35:00 20.4 C 75 % 15.82 C
465 01-09-2019 14:40:00 20.5 C 74 % 15.71 C
466 01-09-2019 14:45:00 20.5 C 74 % 15.71 C
467 01-09-2019 14:50:00 20.6 C 74 % 15.8 C
468 01-09-2019 14:55:00 20.6 C 73 % 15.59 C
469 01-09-2019 15:00:00 20.6 C 72 % 15.38 C
470 01-09-2019 15:05:00 20.6 C 72 % 15.38 C
471 01-09-2019 15:10:00 20.6 C 72 % 15.38 C
472 01-09-2019 15:15:00 20.7 C 71 % 15.25 C
473 01-09-2019 15:20:00 20.7 C 72 % 15.47 C
474 01-09-2019 15:25:00 20.7 C 72 % 15.47 C
475 01-09-2019 15:30:00 20.6 C 72 % 15.38 C
Sensor: Nr:Datum:Temp:Feuchte:Taupunkt:
Aussen-T/F 476 01-09-2019 15:35:00 20.6 C 72 % 15.38 C
477 01-09-2019 15:40:00 20.6 C 71 % 15.16 C
478 01-09-2019 15:45:00 20.5 C 72 % 15.28 C
479 01-09-2019 15:50:00 20.6 C 71 % 15.16 C
480 01-09-2019 15:55:00 20.6 C 71 % 15.16 C
481 01-09-2019 16:00:00 20.6 C 72 % 15.38 C
482 01-09-2019 16:05:00 20.6 C 70 % 14.94 C
483 01-09-2019 16:10:00 20.5 C 70 % 14.84 C
484 01-09-2019 16:15:00 20.4 C 69 % 14.52 C
485 01-09-2019 16:20:00 20.4 C 68 % 14.3 C
486 01-09-2019 16:25:00 20.4 C 67 % 14.07 C
487 01-09-2019 16:30:00 20.4 C 67 % 14.07 C
488 01-09-2019 16:35:00 20.3 C 67 % 13.97 C
489 01-09-2019 16:40:00 20.3 C 67 % 13.97 C
490 01-09-2019 16:45:00 20.3 C 67 % 13.97 C
491 01-09-2019 16:50:00 20.2 C 66 % 13.65 C
492 01-09-2019 16:55:00 20.2 C 66 % 13.65 C
493 01-09-2019 17:00:00 20.1 C 65 % 13.32 C
494 01-09-2019 17:05:00 20.1 C 66 % 13.55 C
495 01-09-2019 17:10:00 20 C 66 % 13.46 C
496 01-09-2019 17:15:00 20 C 66 % 13.46 C
497 01-09-2019 17:20:00 20 C 66 % 13.46 C
498 01-09-2019 17:25:00 19.9 C 66 % 13.36 C
499 01-09-2019 17:30:00 19.9 C 66 % 13.36 C
500 01-09-2019 17:35:00 20 C 66 % 13.46 C
Sensor: Nr:Datum:Temp:Feuchte:Taupunkt:
Aussen-T/F 501 01-09-2019 17:40:00 20 C 64 % 12.99 C
502 01-09-2019 17:45:00 19.9 C 64 % 12.89 C
503 01-09-2019 17:50:00 19.9 C 65 % 13.13 C
504 01-09-2019 17:55:00 19.9 C 65 % 13.13 C
505 01-09-2019 18:00:00 20 C 64 % 12.99 C
506 01-09-2019 18:05:00 20.1 C 64 % 13.08 C
507 01-09-2019 18:10:00 20.1 C 65 % 13.32 C
508 01-09-2019 18:15:00 20.2 C 64 % 13.18 C
509 01-09-2019 18:20:00 20.4 C 63 % 13.12 C
510 01-09-2019 18:25:00 20.7 C 61 % 12.91 C
511 01-09-2019 18:30:00 20.8 C 61 % 13.01 C
512 01-09-2019 18:35:00 21 C 60 % 12.94 C
513 01-09-2019 18:40:00 21.3 C 59 % 12.97 C
514 01-09-2019 18:45:00 21.4 C 55 % 11.99 C
515 01-09-2019 18:50:00 21.5 C 55 % 12.08 C
516 01-09-2019 18:55:00 21.6 C 56 % 12.45 C
517 01-09-2019 19:00:00 21.6 C 55 % 12.18 C
518 01-09-2019 19:05:00 21.4 C 55 % 11.99 C
519 01-09-2019 19:10:00 21.3 C 55 % 11.9 C
520 01-09-2019 19:15:00 21.1 C 56 % 11.99 C
521 01-09-2019 19:20:00 20.9 C 56 % 11.8 C
522 01-09-2019 19:25:00 20.7 C 58 % 12.15 C
523 01-09-2019 19:30:00 20.4 C 58 % 11.86 C
524 01-09-2019 19:35:00 20.3 C 58 % 11.77 C
525 01-09-2019 19:40:00 20.1 C 59 % 11.84 C
Sensor: Nr:Datum:Temp:Feuchte:Taupunkt:
Aussen-T/F 526 01-09-2019 19:45:00 20 C 61 % 12.26 C
527 01-09-2019 19:50:00 19.8 C 63 % 12.56 C
528 01-09-2019 19:55:00 19.7 C 61 % 11.97 C
529 01-09-2019 20:00:00 19.6 C 61 % 11.88 C
530 01-09-2019 20:05:00 19.4 C 62 % 11.94 C
531 01-09-2019 20:10:00 19.4 C 63 % 12.18 C
532 01-09-2019 20:15:00 19.3 C 64 % 12.32 C
533 01-09-2019 20:20:00 19.1 C 66 % 12.6 C
534 01-09-2019 20:25:00 18.7 C 66 % 12.22 C
535 01-09-2019 20:30:00 18.3 C 67 % 12.07 C
536 01-09-2019 20:35:00 17.9 C 68 % 11.91 C
537 01-09-2019 20:40:00 17.6 C 69 % 11.85 C
538 01-09-2019 20:45:00 17.3 C 69 % 11.56 C
539 01-09-2019 20:50:00 17.1 C 71 % 11.8 C
540 01-09-2019 20:55:00 16.9 C 72 % 11.82 C
541 01-09-2019 21:00:00 16.7 C 73 % 11.84 C
542 01-09-2019 21:05:00 16.7 C 72 % 11.63 C
543 01-09-2019 21:10:00 16.7 C 73 % 11.84 C
544 01-09-2019 21:15:00 16.7 C 73 % 11.84 C
545 01-09-2019 21:20:00 16.7 C 72 % 11.63 C
546 01-09-2019 21:25:00 16.7 C 72 % 11.63 C
547 01-09-2019 21:30:00 16.7 C 72 % 11.63 C
548 01-09-2019 21:35:00 16.7 C 72 % 11.63 C
549 01-09-2019 21:40:00 16.7 C 72 % 11.63 C
550 01-09-2019 21:45:00 16.7 C 73 % 11.84 C
Sensor: Nr:Datum:Temp:Feuchte:Taupunkt:
Aussen-T/F 551 01-09-2019 21:50:00 16.6 C 72 % 11.54 C
552 01-09-2019 21:55:00 16.6 C 72 % 11.54 C
553 01-09-2019 22:00:00 16.6 C 71 % 11.32 C
554 01-09-2019 22:05:00 16.6 C 71 % 11.32 C
555 01-09-2019 22:10:00 16.5 C 71 % 11.23 C
556 01-09-2019 22:15:00 16.5 C 71 % 11.23 C
557 01-09-2019 22:20:00 16.4 C 71 % 11.13 C
558 01-09-2019 22:25:00 16.4 C 71 % 11.13 C
559 01-09-2019 22:30:00 16.4 C 71 % 11.13 C
560 01-09-2019 22:35:00 16.3 C 71 % 11.04 C
561 01-09-2019 22:40:00 16.3 C 71 % 11.04 C
562 01-09-2019 22:45:00 16.3 C 72 % 11.25 C
563 01-09-2019 22:50:00 16.2 C 73 % 11.36 C
564 01-09-2019 22:55:00 16.2 C 73 % 11.36 C
565 01-09-2019 23:00:00 16.1 C 73 % 11.26 C
566 01-09-2019 23:05:00 15.9 C 74 % 11.28 C
567 01-09-2019 23:10:00 15.8 C 74 % 11.18 C
568 01-09-2019 23:15:00 15.8 C 75 % 11.38 C
569 01-09-2019 23:20:00 15.7 C 75 % 11.28 C
570 01-09-2019 23:25:00 15.6 C 75 % 11.19 C
571 01-09-2019 23:30:00 15.5 C 75 % 11.09 C
572 01-09-2019 23:35:00 15.4 C 75 % 11 C
573 01-09-2019 23:40:00 15.4 C 76 % 11.19 C
574 01-09-2019 23:45:00 15.4 C 76 % 11.19 C
575 01-09-2019 23:50:00 15.3 C 76 % 11.1 C
Sensor: Nr:Datum:Temp:Feuchte:Taupunkt:
Aussen-T/F 576 01-09-2019 23:55:00 15.2 C 76 % 11 C
577 02-09-2019 00:00:00 15.1 C 75 % 10.71 C
578 02-09-2019 00:05:00 14.9 C 75 % 10.51 C
579 02-09-2019 00:10:00 14.8 C 75 % 10.42 C
580 02-09-2019 00:15:00 14.7 C 75 % 10.32 C
581 02-09-2019 00:20:00 14.6 C 75 % 10.22 C
582 02-09-2019 00:25:00 14.5 C 75 % 10.13 C
583 02-09-2019 00:30:00 14.4 C 75 % 10.03 C
584 02-09-2019 00:35:00 14.3 C 75 % 9.93 C
585 02-09-2019 00:40:00 14.2 C 76 % 10.03 C
586 02-09-2019 00:45:00 14.1 C 76 % 9.94 C
587 02-09-2019 00:50:00 13.9 C 77 % 9.94 C
588 02-09-2019 00:55:00 13.8 C 77 % 9.84 C
589 02-09-2019 01:00:00 13.7 C 77 % 9.75 C
590 02-09-2019 01:05:00 13.7 C 78 % 9.94 C
591 02-09-2019 01:10:00 13.6 C 78 % 9.84 C
592 02-09-2019 01:15:00 13.4 C 78 % 9.65 C
593 02-09-2019 01:20:00 13.3 C 78 % 9.55 C
594 02-09-2019 01:25:00 13.2 C 78 % 9.45 C
595 02-09-2019 01:30:00 13.1 C 78 % 9.36 C
596 02-09-2019 01:35:00 13.1 C 78 % 9.36 C
597 02-09-2019 01:40:00 13.1 C 77 % 9.16 C
598 02-09-2019 01:45:00 13.1 C 78 % 9.36 C
599 02-09-2019 01:50:00 13.1 C 78 % 9.36 C
600 02-09-2019 01:55:00 13.1 C 78 % 9.36 C
Sensor: Nr:Datum:Temp:Feuchte:Taupunkt:
Aussen-T/F 601 02-09-2019 02:00:00 13.1 C 78 % 9.36 C
602 02-09-2019 02:05:00 13.1 C 79 % 9.54 C
603 02-09-2019 02:10:00 13.2 C 80 % 9.83 C
604 02-09-2019 02:15:00 13.2 C 80 % 9.83 C
605 02-09-2019 02:20:00 13.3 C 81 % 10.11 C
606 02-09-2019 02:25:00 13.3 C 80 % 9.93 C
607 02-09-2019 02:30:00 13.4 C 80 % 10.02 C
608 02-09-2019 02:35:00 13.4 C 81 % 10.21 C
609 02-09-2019 02:40:00 13.4 C 81 % 10.21 C
610 02-09-2019 02:45:00 13.4 C 81 % 10.21 C
611 02-09-2019 02:50:00 13.4 C 81 % 10.21 C
612 02-09-2019 02:55:00 13.4 C 81 % 10.21 C
613 02-09-2019 03:00:00 13.4 C 82 % 10.39 C
614 02-09-2019 03:05:00 13.4 C 82 % 10.39 C
615 02-09-2019 03:10:00 13.3 C 83 % 10.48 C
616 02-09-2019 03:15:00 13.3 C 83 % 10.48 C
617 02-09-2019 03:20:00 13.3 C 83 % 10.48 C
618 02-09-2019 03:25:00 13.2 C 83 % 10.38 C
619 02-09-2019 03:30:00 13.1 C 83 % 10.28 C
620 02-09-2019 03:35:00 12.9 C 82 % 9.9 C
621 02-09-2019 03:40:00 12.8 C 82 % 9.81 C
622 02-09-2019 03:45:00 12.7 C 82 % 9.71 C
623 02-09-2019 03:50:00 12.5 C 82 % 9.51 C
624 02-09-2019 03:55:00 12.4 C 83 % 9.6 C
625 02-09-2019 04:00:00 12.3 C 83 % 9.5 C
Sensor: Nr:Datum:Temp:Feuchte:Taupunkt:
Aussen-T/F 626 02-09-2019 04:05:00 12.3 C 83 % 9.5 C
627 02-09-2019 04:10:00 12.2 C 83 % 9.4 C
628 02-09-2019 04:15:00 12.2 C 83 % 9.4 C
629 02-09-2019 04:20:00 12.1 C 84 % 9.48 C
630 02-09-2019 04:25:00 12 C 83 % 9.21 C
631 02-09-2019 04:30:00 11.9 C 84 % 9.29 C
632 02-09-2019 04:35:00 11.8 C 85 % 9.36 C
633 02-09-2019 04:40:00 11.8 C 85 % 9.36 C
634 02-09-2019 04:45:00 11.8 C 85 % 9.36 C
635 02-09-2019 04:50:00 11.8 C 85 % 9.36 C
636 02-09-2019 04:55:00 11.8 C 84 % 9.19 C
637 02-09-2019 05:00:00 11.7 C 85 % 9.27 C
638 02-09-2019 05:05:00 11.7 C 85 % 9.27 C
639 02-09-2019 05:10:00 11.6 C 85 % 9.17 C
640 02-09-2019 05:15:00 11.5 C 85 % 9.07 C
641 02-09-2019 05:20:00 11.4 C 86 % 9.14 C
642 02-09-2019 05:25:00 11.3 C 86 % 9.05 C
643 02-09-2019 05:30:00 11.2 C 86 % 8.95 C
644 02-09-2019 05:35:00 11.1 C 86 % 8.85 C
645 02-09-2019 05:40:00 10.9 C 86 % 8.65 C
646 02-09-2019 05:45:00 10.8 C 87 % 8.73 C
647 02-09-2019 05:50:00 10.7 C 87 % 8.63 C
648 02-09-2019 05:55:00 10.7 C 87 % 8.63 C
649 02-09-2019 06:00:00 10.6 C 88 % 8.7 C
650 02-09-2019 06:05:00 10.6 C 88 % 8.7 C
Sensor: Nr:Datum:Temp:Feuchte:Taupunkt:
Aussen-T/F 651 02-09-2019 06:10:00 10.4 C 88 % 8.5 C
652 02-09-2019 06:15:00 10.3 C 88 % 8.4 C
653 02-09-2019 06:20:00 10.2 C 88 % 8.3 C
654 02-09-2019 06:25:00 10.1 C 89 % 8.37 C
655 02-09-2019 06:30:00 10.1 C 90 % 8.54 C
656 02-09-2019 06:35:00 10.1 C 90 % 8.54 C
657 02-09-2019 06:40:00 10 C 90 % 8.44 C
658 02-09-2019 06:45:00 9.9 C 90 % 8.34 C
659 02-09-2019 06:50:00 9.8 C 90 % 8.24 C
660 02-09-2019 06:55:00 9.7 C 90 % 8.14 C
661 02-09-2019 07:00:00 9.7 C 90 % 8.14 C
662 02-09-2019 07:05:00 9.7 C 91 % 8.3 C
663 02-09-2019 07:10:00 9.7 C 91 % 8.3 C
664 02-09-2019 07:15:00 9.7 C 92 % 8.46 C
665 02-09-2019 07:20:00 9.7 C 92 % 8.46 C
666 02-09-2019 07:25:00 9.7 C 92 % 8.46 C
667 02-09-2019 07:30:00 9.7 C 92 % 8.46 C
668 02-09-2019 07:35:00 9.7 C 92 % 8.46 C
669 02-09-2019 07:40:00 9.8 C 92 % 8.56 C
670 02-09-2019 07:45:00 9.8 C 92 % 8.56 C
671 02-09-2019 07:50:00 9.8 C 92 % 8.56 C
672 02-09-2019 07:55:00 9.8 C 92 % 8.56 C
673 02-09-2019 08:00:00 9.9 C 92 % 8.66 C
674 02-09-2019 08:05:00 9.9 C 93 % 8.82 C
675 02-09-2019 08:10:00 9.9 C 93 % 8.82 C
Sensor: Nr:Datum:Temp:Feuchte:Taupunkt:
Aussen-T/F 676 02-09-2019 08:15:00 9.9 C 93 % 8.82 C
677 02-09-2019 08:20:00 9.9 C 93 % 8.82 C
678 02-09-2019 08:25:00 9.9 C 93 % 8.82 C
679 02-09-2019 08:30:00 10 C 93 % 8.92 C
680 02-09-2019 08:35:00 10.1 C 93 % 9.02 C
681 02-09-2019 08:40:00 10.1 C 93 % 9.02 C
682 02-09-2019 08:45:00 10.2 C 93 % 9.12 C
683 02-09-2019 08:50:00 10.3 C 93 % 9.22 C
684 02-09-2019 08:55:00 10.3 C 93 % 9.22 C
685 02-09-2019 09:00:00 10.3 C 93 % 9.22 C
686 02-09-2019 09:05:00 10.4 C 93 % 9.32 C
687 02-09-2019 09:10:00 10.4 C 93 % 9.32 C
688 02-09-2019 09:15:00 10.6 C 93 % 9.52 C
689 02-09-2019 09:20:00 10.7 C 93 % 9.62 C
690 02-09-2019 09:25:00 10.8 C 93 % 9.71 C
691 02-09-2019 09:30:00 10.9 C 93 % 9.81 C
692 02-09-2019 09:35:00 10.9 C 92 % 9.65 C
693 02-09-2019 09:40:00 11.1 C 92 % 9.85 C
694 02-09-2019 09:45:00 11.2 C 92 % 9.95 C
695 02-09-2019 09:50:00 11.3 C 92 % 10.05 C
696 02-09-2019 09:55:00 11.4 C 92 % 10.15 C
697 02-09-2019 10:00:00 11.6 C 92 % 10.35 C
698 02-09-2019 10:05:00 11.8 C 92 % 10.54 C
699 02-09-2019 10:10:00 12 C 92 % 10.74 C
700 02-09-2019 10:15:00 12.3 C 91 % 10.87 C
Sensor: Nr:Datum:Temp:Feuchte:Taupunkt:
Aussen-T/F 701 02-09-2019 10:20:00 12.5 C 91 % 11.07 C
702 02-09-2019 10:25:00 12.7 C 90 % 11.1 C
703 02-09-2019 10:30:00 12.9 C 89 % 11.13 C
704 02-09-2019 10:35:00 13.2 C 88 % 11.26 C
705 02-09-2019 10:40:00 13.5 C 87 % 11.38 C
706 02-09-2019 10:45:00 13.7 C 85 % 11.23 C
707 02-09-2019 10:50:00 13.9 C 82 % 10.88 C
708 02-09-2019 10:55:00 14.2 C 78 % 10.42 C
709 02-09-2019 11:00:00 14.6 C 74 % 10.02 C
710 02-09-2019 11:05:00 15 C 73 % 10.2 C
711 02-09-2019 11:10:00 15.5 C 69 % 9.84 C
712 02-09-2019 11:15:00 15.9 C 68 % 10.01 C
713 02-09-2019 11:20:00 16.2 C 67 % 10.07 C
714 02-09-2019 11:25:00 16.4 C 66 % 10.04 C
715 02-09-2019 11:30:00 16.6 C 65 % 10 C
716 02-09-2019 11:35:00 16.7 C 64 % 9.86 C
717 02-09-2019 11:40:00 16.8 C 64 % 9.96 C
718 02-09-2019 11:45:00 16.9 C 63 % 9.82 C
719 02-09-2019 11:50:00 16.9 C 62 % 9.58 C
720 02-09-2019 11:55:00 16.9 C 62 % 9.58 C
721 02-09-2019 12:00:00 16.8 C 62 % 9.49 C
722 02-09-2019 12:05:00 17 C 63 % 9.91 C
723 02-09-2019 12:10:00 17.2 C 60 % 9.37 C
724 02-09-2019 12:15:00 17.3 C 60 % 9.47 C
725 02-09-2019 12:20:00 17.4 C 61 % 9.81 C
Sensor: Nr:Datum:Temp:Feuchte:Taupunkt:
Aussen-T/F 726 02-09-2019 12:25:00 17.6 C 56 % 8.73 C
727 02-09-2019 12:30:00 17.7 C 53 % 8.01 C
728 02-09-2019 12:35:00 17.7 C 54 % 8.28 C
729 02-09-2019 12:40:00 17.7 C 54 % 8.28 C
730 02-09-2019 12:45:00 17.9 C 52 % 7.91 C
731 02-09-2019 12:50:00 18 C 51 % 7.72 C
732 02-09-2019 12:55:00 18.1 C 52 % 8.1 C
733 02-09-2019 13:00:00 18.2 C 53 % 8.47 C
734 02-09-2019 13:05:00 18.3 C 53 % 8.56 C
735 02-09-2019 13:10:00 18.4 C 54 % 8.93 C
736 02-09-2019 13:15:00 18.5 C 52 % 8.47 C
737 02-09-2019 13:20:00 18.6 C 49 % 7.69 C
738 02-09-2019 13:25:00 18.7 C 49 % 7.78 C
739 02-09-2019 13:30:00 18.8 C 49 % 7.87 C
740 02-09-2019 13:35:00 18.8 C 50 % 8.17 C
741 02-09-2019 13:40:00 18.9 C 49 % 7.96 C
742 02-09-2019 13:45:00 19 C 48 % 7.75 C
743 02-09-2019 13:50:00 19.1 C 45 % 6.9 C
744 02-09-2019 13:55:00 19.2 C 45 % 6.99 C
745 02-09-2019 14:00:00 19.4 C 48 % 8.12 C
746 02-09-2019 14:05:00 19.5 C 49 % 8.51 C
747 02-09-2019 14:10:00 19.5 C 46 % 7.58 C
748 02-09-2019 14:15:00 19.6 C 48 % 8.3 C
749 02-09-2019 14:20:00 19.8 C 46 % 7.86 C
750 02-09-2019 14:25:00 19.9 C 44 % 7.3 C
Sensor: Nr:Datum:Temp:Feuchte:Taupunkt:
Aussen-T/F 751 02-09-2019 14:30:00 19.9 C 46 % 7.95 C
752 02-09-2019 14:35:00 20 C 45 % 7.72 C
753 02-09-2019 14:40:00 20 C 46 % 8.04 C
754 02-09-2019 14:45:00 20.1 C 46 % 8.13 C
755 02-09-2019 14:50:00 20.1 C 47 % 8.45 C
756 02-09-2019 14:55:00 20.2 C 44 % 7.57 C
757 02-09-2019 15:00:00 20.2 C 45 % 7.9 C
758 02-09-2019 15:05:00 20.3 C 45 % 7.99 C
759 02-09-2019 15:10:00 20.4 C 44 % 7.75 C
760 02-09-2019 15:15:00 20.4 C 45 % 8.08 C
761 02-09-2019 15:20:00 20.3 C 45 % 7.99 C
762 02-09-2019 15:25:00 20.1 C 46 % 8.13 C
763 02-09-2019 15:30:00 20 C 45 % 7.72 C
764 02-09-2019 15:35:00 19.9 C 46 % 7.95 C
765 02-09-2019 15:40:00 19.8 C 47 % 8.17 C
766 02-09-2019 15:45:00 19.9 C 46 % 7.95 C
767 02-09-2019 15:50:00 20.3 C 45 % 7.99 C
768 02-09-2019 15:55:00 20.5 C 44 % 7.84 C
769 02-09-2019 16:00:00 20.8 C 43 % 7.77 C
770 02-09-2019 16:05:00 21.1 C 43 % 8.04 C
771 02-09-2019 16:10:00 21.3 C 43 % 8.22 C
772 02-09-2019 16:15:00 21.4 C 42 % 7.97 C
773 02-09-2019 16:20:00 21.6 C 42 % 8.15 C
774 02-09-2019 16:25:00 21.7 C 43 % 8.58 C
775 02-09-2019 16:30:00 21.8 C 41 % 7.97 C
Sensor: Nr:Datum:Temp:Feuchte:Taupunkt:
Aussen-T/F 776 02-09-2019 16:35:00 22.1 C 40 % 7.88 C
777 02-09-2019 16:40:00 22.2 C 40 % 7.97 C
778 02-09-2019 16:45:00 22.4 C 42 % 8.87 C
779 02-09-2019 16:50:00 22.6 C 40 % 8.33 C
780 02-09-2019 16:55:00 22.7 C 40 % 8.42 C
781 02-09-2019 17:00:00 22.8 C 39 % 8.13 C
782 02-09-2019 17:05:00 22.8 C 39 % 8.13 C
783 02-09-2019 17:10:00 22.9 C 38 % 7.84 C
784 02-09-2019 17:15:00 22.9 C 39 % 8.22 C
785 02-09-2019 17:20:00 22.9 C 38 % 7.84 C
786 02-09-2019 17:25:00 23.1 C 38 % 8.02 C
787 02-09-2019 17:30:00 23.1 C 38 % 8.02 C
788 02-09-2019 17:35:00 23.1 C 37 % 7.63 C
789 02-09-2019 17:40:00 23.2 C 39 % 8.49 C
790 02-09-2019 17:45:00 23.3 C 38 % 8.19 C
791 02-09-2019 17:50:00 23.5 C 36 % 7.58 C
792 02-09-2019 17:55:00 23.5 C 36 % 7.58 C
793 02-09-2019 18:00:00 23.3 C 36 % 7.4 C
794 02-09-2019 18:05:00 23.1 C 37 % 7.63 C
795 02-09-2019 18:10:00 22.9 C 39 % 8.22 C
796 02-09-2019 18:15:00 23.1 C 36 % 7.23 C
797 02-09-2019 18:20:00 23.1 C 37 % 7.63 C
798 02-09-2019 18:25:00 23.2 C 38 % 8.11 C
799 02-09-2019 18:30:00 23.1 C 37 % 7.63 C
800 02-09-2019 18:35:00 23 C 37 % 7.54 C
Sensor: Nr:Datum:Temp:Feuchte:Taupunkt:
Aussen-T/F 801 02-09-2019 18:40:00 22.9 C 37 % 7.45 C
802 02-09-2019 18:45:00 22.8 C 37 % 7.36 C
803 02-09-2019 18:50:00 22.7 C 38 % 7.66 C
804 02-09-2019 18:55:00 22.7 C 39 % 8.04 C
805 02-09-2019 19:00:00 22.7 C 37 % 7.27 C
806 02-09-2019 19:05:00 22.7 C 38 % 7.66 C
807 02-09-2019 19:10:00 22.6 C 39 % 7.95 C
808 02-09-2019 19:15:00 22.3 C 40 % 8.06 C
809 02-09-2019 19:20:00 21.9 C 45 % 9.44 C
810 02-09-2019 19:25:00 21.2 C 47 % 9.45 C
811 02-09-2019 19:30:00 20.6 C 48 % 9.21 C
812 02-09-2019 19:35:00 19.8 C 49 % 8.79 C
813 02-09-2019 19:40:00 19.1 C 53 % 9.3 C
814 02-09-2019 19:45:00 18.4 C 54 % 8.93 C
815 02-09-2019 19:50:00 18 C 55 % 8.83 C
816 02-09-2019 19:55:00 17.6 C 56 % 8.73 C
817 02-09-2019 20:00:00 17.4 C 56 % 8.54 C
818 02-09-2019 20:05:00 17.3 C 56 % 8.45 C
819 02-09-2019 20:10:00 17.3 C 58 % 8.97 C
820 02-09-2019 20:15:00 17.2 C 55 % 8.09 C
821 02-09-2019 20:20:00 17.1 C 57 % 8.52 C
822 02-09-2019 20:25:00 17.1 C 56 % 8.26 C
823 02-09-2019 20:30:00 16.9 C 56 % 8.07 C
824 02-09-2019 20:35:00 16.7 C 56 % 7.89 C
825 02-09-2019 20:40:00 16.6 C 56 % 7.8 C
Sensor: Nr:Datum:Temp:Feuchte:Taupunkt:
Aussen-T/F 826 02-09-2019 20:45:00 16.5 C 57 % 7.96 C
827 02-09-2019 20:50:00 16.4 C 56 % 7.61 C
828 02-09-2019 20:55:00 16.3 C 57 % 7.77 C
829 02-09-2019 21:00:00 16.2 C 56 % 7.42 C
830 02-09-2019 21:05:00 16.1 C 56 % 7.33 C
831 02-09-2019 21:10:00 16 C 56 % 7.24 C
832 02-09-2019 21:15:00 15.9 C 58 % 7.66 C
833 02-09-2019 21:20:00 15.8 C 60 % 8.06 C
834 02-09-2019 21:25:00 15.5 C 61 % 8.02 C
835 02-09-2019 21:30:00 15.3 C 61 % 7.83 C
836 02-09-2019 21:35:00 15.1 C 62 % 7.88 C
837 02-09-2019 21:40:00 15 C 63 % 8.02 C
838 02-09-2019 21:45:00 14.8 C 65 % 8.29 C
839 02-09-2019 21:50:00 14.6 C 65 % 8.1 C
840 02-09-2019 21:55:00 14.4 C 65 % 7.91 C
841 02-09-2019 22:00:00 14.2 C 67 % 8.17 C
842 02-09-2019 22:05:00 13.9 C 68 % 8.1 C
843 02-09-2019 22:10:00 13.8 C 69 % 8.22 C
844 02-09-2019 22:15:00 13.6 C 69 % 8.03 C
845 02-09-2019 22:20:00 13.5 C 70 % 8.14 C
846 02-09-2019 22:25:00 13.4 C 71 % 8.26 C
847 02-09-2019 22:30:00 13.3 C 71 % 8.16 C
848 02-09-2019 22:35:00 13.2 C 70 % 7.86 C
849 02-09-2019 22:40:00 13.2 C 71 % 8.06 C
850 02-09-2019 22:45:00 13.2 C 72 % 8.27 C
Sensor: Nr:Datum:Temp:Feuchte:Taupunkt:
Aussen-T/F 851 02-09-2019 22:50:00 13.2 C 72 % 8.27 C
852 02-09-2019 22:55:00 13.2 C 72 % 8.27 C
853 02-09-2019 23:00:00 13.2 C 72 % 8.27 C
854 02-09-2019 23:05:00 13.2 C 72 % 8.27 C
855 02-09-2019 23:10:00 13.1 C 71 % 7.97 C
856 02-09-2019 23:15:00 13.1 C 72 % 8.17 C
857 02-09-2019 23:20:00 13.1 C 72 % 8.17 C
858 02-09-2019 23:25:00 13 C 73 % 8.28 C
859 02-09-2019 23:30:00 12.9 C 74 % 8.38 C
860 02-09-2019 23:35:00 12.9 C 73 % 8.18 C
861 02-09-2019 23:40:00 12.9 C 73 % 8.18 C
862 02-09-2019 23:45:00 12.8 C 73 % 8.09 C
863 02-09-2019 23:50:00 12.8 C 74 % 8.29 C
864 02-09-2019 23:55:00 12.8 C 74 % 8.29 C
865 03-09-2019 00:00:00 12.7 C 74 % 8.19 C
866 03-09-2019 00:05:00 12.7 C 74 % 8.19 C
867 03-09-2019 00:10:00 12.6 C 74 % 8.09 C
868 03-09-2019 00:15:00 12.5 C 74 % 8 C
869 03-09-2019 00:20:00 12.4 C 74 % 7.9 C
870 03-09-2019 00:25:00 12.4 C 75 % 8.1 C
871 03-09-2019 00:30:00 12.3 C 75 % 8 C
872 03-09-2019 00:35:00 12.3 C 75 % 8 C
873 03-09-2019 00:40:00 12.2 C 75 % 7.91 C
874 03-09-2019 00:45:00 12.2 C 76 % 8.1 C
875 03-09-2019 00:50:00 12.2 C 76 % 8.1 C
Sensor: Nr:Datum:Temp:Feuchte:Taupunkt:
Aussen-T/F 876 03-09-2019 00:55:00 12.2 C 76 % 8.1 C
877 03-09-2019 01:00:00 12.2 C 76 % 8.1 C
878 03-09-2019 01:05:00 12.2 C 76 % 8.1 C
879 03-09-2019 01:10:00 12.2 C 76 % 8.1 C
880 03-09-2019 01:15:00 12.2 C 77 % 8.29 C
881 03-09-2019 01:20:00 12.3 C 77 % 8.39 C
882 03-09-2019 01:25:00 12.3 C 77 % 8.39 C
883 03-09-2019 01:30:00 12.2 C 76 % 8.1 C
884 03-09-2019 01:35:00 12.2 C 77 % 8.29 C
885 03-09-2019 01:40:00 12.2 C 77 % 8.29 C
886 03-09-2019 01:45:00 12 C 76 % 7.91 C
887 03-09-2019 01:50:00 11.8 C 76 % 7.71 C
888 03-09-2019 01:55:00 11.7 C 77 % 7.81 C
889 03-09-2019 02:00:00 11.4 C 77 % 7.52 C
890 03-09-2019 02:05:00 11.3 C 78 % 7.61 C
891 03-09-2019 02:10:00 11.2 C 78 % 7.51 C
892 03-09-2019 02:15:00 11.1 C 78 % 7.41 C
893 03-09-2019 02:20:00 11 C 79 % 7.5 C
894 03-09-2019 02:25:00 10.9 C 79 % 7.41 C
895 03-09-2019 02:30:00 10.8 C 80 % 7.49 C
896 03-09-2019 02:35:00 10.7 C 80 % 7.4 C
897 03-09-2019 02:40:00 10.7 C 80 % 7.4 C
898 03-09-2019 02:45:00 10.6 C 80 % 7.3 C
899 03-09-2019 02:50:00 10.6 C 80 % 7.3 C
900 03-09-2019 02:55:00 10.4 C 80 % 7.1 C
Sensor: Nr:Datum:Temp:Feuchte:Taupunkt:
Aussen-T/F 901 03-09-2019 03:00:00 10.4 C 80 % 7.1 C
902 03-09-2019 03:05:00 10.4 C 81 % 7.28 C
903 03-09-2019 03:10:00 10.3 C 81 % 7.19 C
904 03-09-2019 03:15:00 10.2 C 81 % 7.09 C
905 03-09-2019 03:20:00 10.2 C 81 % 7.09 C
906 03-09-2019 03:25:00 10.2 C 82 % 7.27 C
907 03-09-2019 03:30:00 10.2 C 82 % 7.27 C
908 03-09-2019 03:35:00 10.1 C 82 % 7.17 C
909 03-09-2019 03:40:00 10.1 C 82 % 7.17 C
910 03-09-2019 03:45:00 10 C 82 % 7.07 C
911 03-09-2019 03:50:00 10 C 82 % 7.07 C
912 03-09-2019 03:55:00 10 C 83 % 7.25 C
913 03-09-2019 04:00:00 10.1 C 83 % 7.35 C
914 03-09-2019 04:05:00 10.1 C 84 % 7.52 C
915 03-09-2019 04:10:00 10.1 C 84 % 7.52 C
916 03-09-2019 04:15:00 10.1 C 84 % 7.52 C
917 03-09-2019 04:20:00 10.1 C 84 % 7.52 C
918 03-09-2019 04:25:00 10.1 C 84 % 7.52 C
919 03-09-2019 04:30:00 10.1 C 84 % 7.52 C
920 03-09-2019 04:35:00 10.1 C 84 % 7.52 C
921 03-09-2019 04:40:00 10.1 C 84 % 7.52 C
922 03-09-2019 04:45:00 10.1 C 84 % 7.52 C
923 03-09-2019 04:50:00 10.1 C 84 % 7.52 C
924 03-09-2019 04:55:00 9.9 C 83 % 7.15 C
925 03-09-2019 05:00:00 9.9 C 83 % 7.15 C
Sensor: Nr:Datum:Temp:Feuchte:Taupunkt:
Aussen-T/F 926 03-09-2019 05:05:00 9.7 C 83 % 6.96 C
927 03-09-2019 05:10:00 9.6 C 84 % 7.03 C
928 03-09-2019 05:15:00 9.5 C 84 % 6.94 C
929 03-09-2019 05:20:00 9.4 C 85 % 7.01 C
930 03-09-2019 05:25:00 9.4 C 85 % 7.01 C
931 03-09-2019 05:30:00 9.3 C 85 % 6.91 C
932 03-09-2019 05:35:00 9.2 C 85 % 6.81 C
933 03-09-2019 05:40:00 9.3 C 86 % 7.08 C
934 03-09-2019 05:45:00 9.3 C 87 % 7.25 C
935 03-09-2019 05:50:00 9.4 C 87 % 7.35 C
936 03-09-2019 05:55:00 9.4 C 87 % 7.35 C
937 03-09-2019 06:00:00 9.3 C 87 % 7.25 C
938 03-09-2019 06:05:00 9.3 C 87 % 7.25 C
939 03-09-2019 06:10:00 9.2 C 86 % 6.98 C
940 03-09-2019 06:15:00 9.1 C 86 % 6.89 C
941 03-09-2019 06:20:00 9 C 87 % 6.96 C
942 03-09-2019 06:25:00 8.9 C 87 % 6.86 C
943 03-09-2019 06:30:00 8.8 C 87 % 6.76 C
944 03-09-2019 06:35:00 8.8 C 87 % 6.76 C
945 03-09-2019 06:40:00 8.7 C 87 % 6.66 C
946 03-09-2019 06:45:00 8.7 C 88 % 6.83 C
947 03-09-2019 06:50:00 8.6 C 88 % 6.73 C
948 03-09-2019 06:55:00 8.6 C 88 % 6.73 C
949 03-09-2019 07:00:00 8.5 C 88 % 6.63 C
950 03-09-2019 07:05:00 8.6 C 89 % 6.89 C
Sensor: Nr:Datum:Temp:Feuchte:Taupunkt:
Aussen-T/F 951 03-09-2019 07:10:00 8.6 C 88 % 6.73 C
952 03-09-2019 07:15:00 8.6 C 89 % 6.89 C
953 03-09-2019 07:20:00 8.6 C 89 % 6.89 C
954 03-09-2019 07:25:00 8.7 C 89 % 6.99 C
955 03-09-2019 07:30:00 8.7 C 89 % 6.99 C
956 03-09-2019 07:35:00 8.7 C 89 % 6.99 C
957 03-09-2019 07:40:00 8.7 C 89 % 6.99 C
958 03-09-2019 07:45:00 8.7 C 89 % 6.99 C
959 03-09-2019 07:50:00 8.7 C 89 % 6.99 C
960 03-09-2019 07:55:00 8.8 C 89 % 7.09 C
961 03-09-2019 08:00:00 8.8 C 89 % 7.09 C
962 03-09-2019 08:05:00 8.8 C 89 % 7.09 C
963 03-09-2019 08:10:00 8.8 C 89 % 7.09 C
964 03-09-2019 08:15:00 8.9 C 90 % 7.35 C
965 03-09-2019 08:20:00 8.9 C 90 % 7.35 C
966 03-09-2019 08:25:00 9 C 90 % 7.45 C
967 03-09-2019 08:30:00 9.1 C 90 % 7.55 C
968 03-09-2019 08:35:00 9.2 C 90 % 7.65 C
969 03-09-2019 08:40:00 9.3 C 90 % 7.75 C
970 03-09-2019 08:45:00 9.3 C 90 % 7.75 C
971 03-09-2019 08:50:00 9.4 C 90 % 7.85 C
972 03-09-2019 08:55:00 9.5 C 90 % 7.94 C
973 03-09-2019 09:00:00 9.6 C 90 % 8.04 C
974 03-09-2019 09:05:00 9.7 C 90 % 8.14 C
975 03-09-2019 09:10:00 9.8 C 90 % 8.24 C
Sensor: Nr:Datum:Temp:Feuchte:Taupunkt:
Aussen-T/F 976 03-09-2019 09:15:00 9.9 C 90 % 8.34 C
977 03-09-2019 09:20:00 10.1 C 89 % 8.37 C
978 03-09-2019 09:25:00 10.2 C 89 % 8.47 C
979 03-09-2019 09:30:00 10.3 C 89 % 8.57 C
980 03-09-2019 09:35:00 10.6 C 89 % 8.86 C
981 03-09-2019 09:40:00 10.8 C 88 % 8.89 C
982 03-09-2019 09:45:00 11 C 88 % 9.09 C
983 03-09-2019 09:50:00 11.2 C 88 % 9.29 C
984 03-09-2019 09:55:00 11.3 C 87 % 9.22 C
985 03-09-2019 10:00:00 11.6 C 87 % 9.51 C
986 03-09-2019 10:05:00 11.7 C 86 % 9.44 C
987 03-09-2019 10:10:00 12 C 86 % 9.73 C
988 03-09-2019 10:15:00 12.3 C 85 % 9.85 C
989 03-09-2019 10:20:00 12.7 C 85 % 10.25 C
990 03-09-2019 10:25:00 13 C 84 % 10.36 C
991 03-09-2019 10:30:00 13.3 C 82 % 10.3 C
992 03-09-2019 10:35:00 13.6 C 80 % 10.22 C
993 03-09-2019 10:40:00 14.1 C 78 % 10.33 C
994 03-09-2019 10:45:00 14.5 C 77 % 10.52 C
995 03-09-2019 10:50:00 14.8 C 75 % 10.42 C
996 03-09-2019 10:55:00 15.1 C 74 % 10.5 C
997 03-09-2019 11:00:00 15.5 C 71 % 10.27 C
998 03-09-2019 11:05:00 15.8 C 70 % 10.34 C
999 03-09-2019 11:10:00 16.1 C 70 % 10.63 C
1000 03-09-2019 11:15:00 16.3 C 67 % 10.17 C
Sensor: Nr:Datum:Temp:Feuchte:Taupunkt:
Aussen-T/F 1001 03-09-2019 11:20:00 16.7 C 65 % 10.09 C
1002 03-09-2019 11:25:00 17.2 C 63 % 10.1 C
1003 03-09-2019 11:30:00 17.7 C 61 % 10.09 C
1004 03-09-2019 11:35:00 18.1 C 61 % 10.47 C
1005 03-09-2019 11:40:00 18.3 C 60 % 10.41 C
1006 03-09-2019 11:45:00 18.5 C 58 % 10.09 C
1007 03-09-2019 11:50:00 18.8 C 57 % 10.11 C
1008 03-09-2019 11:55:00 19.1 C 56 % 10.12 C
1009 03-09-2019 12:00:00 19.3 C 57 % 10.58 C
1010 03-09-2019 12:05:00 19.5 C 54 % 9.95 C
1011 03-09-2019 12:10:00 19.6 C 55 % 10.32 C
1012 03-09-2019 12:15:00 19.7 C 56 % 10.68 C
1013 03-09-2019 12:20:00 19.8 C 54 % 10.23 C
1014 03-09-2019 12:25:00 19.9 C 53 % 10.04 C
1015 03-09-2019 12:30:00 20 C 53 % 10.14 C
1016 03-09-2019 12:35:00 20.1 C 52 % 9.94 C
1017 03-09-2019 12:40:00 20.3 C 53 % 10.41 C
1018 03-09-2019 12:45:00 20.3 C 52 % 10.13 C
1019 03-09-2019 12:50:00 20.4 C 51 % 9.93 C
1020 03-09-2019 12:55:00 20.6 C 52 % 10.41 C
1021 03-09-2019 13:00:00 20.8 C 53 % 10.88 C
1022 03-09-2019 13:05:00 20.8 C 50 % 10 C
1023 03-09-2019 13:10:00 20.8 C 51 % 10.3 C
1024 03-09-2019 13:15:00 21 C 50 % 10.19 C
1025 03-09-2019 13:20:00 21.2 C 50 % 10.37 C
Sensor: Nr:Datum:Temp:Feuchte:Taupunkt:
Aussen-T/F 1026 03-09-2019 13:25:00 21.1 C 50 % 10.28 C
1027 03-09-2019 13:30:00 21.2 C 50 % 10.37 C
1028 03-09-2019 13:35:00 21.4 C 48 % 9.94 C
1029 03-09-2019 13:40:00 21.6 C 50 % 10.74 C
1030 03-09-2019 13:45:00 21.6 C 49 % 10.44 C
1031 03-09-2019 13:50:00 21.7 C 48 % 10.22 C
1032 03-09-2019 13:55:00 21.8 C 47 % 9.99 C
1033 03-09-2019 14:00:00 21.9 C 46 % 9.77 C
1034 03-09-2019 14:05:00 22.1 C 46 % 9.95 C
1035 03-09-2019 14:10:00 22.2 C 47 % 10.36 C
1036 03-09-2019 14:15:00 22.3 C 45 % 9.8 C
1037 03-09-2019 14:20:00 22.3 C 46 % 10.13 C
1038 03-09-2019 14:25:00 22.6 C 46 % 10.4 C
1039 03-09-2019 14:30:00 22.7 C 45 % 10.16 C
1040 03-09-2019 14:35:00 22.7 C 45 % 10.16 C
1041 03-09-2019 14:40:00 22.9 C 46 % 10.67 C
1042 03-09-2019 14:45:00 23.2 C 45 % 10.62 C
1043 03-09-2019 14:50:00 23.3 C 44 % 10.37 C
1044 03-09-2019 14:55:00 23.5 C 45 % 10.89 C
1045 03-09-2019 15:00:00 23.6 C 45 % 10.98 C
1046 03-09-2019 15:05:00 23.5 C 45 % 10.89 C
1047 03-09-2019 15:10:00 23.6 C 45 % 10.98 C
1048 03-09-2019 15:15:00 23.7 C 45 % 11.07 C
1049 03-09-2019 15:20:00 23.8 C 45 % 11.16 C
1050 03-09-2019 15:25:00 24 C 45 % 11.34 C
Sensor: Nr:Datum:Temp:Feuchte:Taupunkt:
Aussen-T/F 1051 03-09-2019 15:30:00 24.2 C 45 % 11.52 C
1052 03-09-2019 15:35:00 24.2 C 45 % 11.52 C
1053 03-09-2019 15:40:00 23.9 C 47 % 11.91 C
1054 03-09-2019 15:45:00 23.7 C 47 % 11.73 C
1055 03-09-2019 15:50:00 23.5 C 48 % 11.86 C
1056 03-09-2019 15:55:00 23.3 C 48 % 11.68 C
1057 03-09-2019 16:00:00 23.3 C 50 % 12.3 C
1058 03-09-2019 16:05:00 23.3 C 49 % 11.99 C
1059 03-09-2019 16:10:00 23.2 C 50 % 12.21 C
1060 03-09-2019 16:15:00 23.2 C 49 % 11.9 C
1061 03-09-2019 16:20:00 23.1 C 50 % 12.11 C
1062 03-09-2019 16:25:00 23.1 C 51 % 12.42 C
1063 03-09-2019 16:30:00 23.6 C 51 % 12.88 C
1064 03-09-2019 16:35:00 24.1 C 49 % 12.72 C
1065 03-09-2019 16:40:00 24.3 C 49 % 12.91 C
1066 03-09-2019 16:45:00 24.2 C 49 % 12.81 C
1067 03-09-2019 16:50:00 23.8 C 50 % 12.76 C
1068 03-09-2019 16:55:00 23.8 C 51 % 13.06 C
1069 03-09-2019 17:00:00 23.7 C 51 % 12.97 C
1070 03-09-2019 17:05:00 23.3 C 51 % 12.6 C
1071 03-09-2019 17:10:00 23.1 C 52 % 12.71 C
1072 03-09-2019 17:15:00 23.3 C 52 % 12.9 C
1073 03-09-2019 17:20:00 23.6 C 52 % 13.17 C
1074 03-09-2019 17:25:00 23.7 C 51 % 12.97 C
1075 03-09-2019 17:30:00 23.8 C 51 % 13.06 C
Sensor: Nr:Datum:Temp:Feuchte:Taupunkt:
Aussen-T/F 1076 03-09-2019 17:35:00 23.8 C 50 % 12.76 C
1077 03-09-2019 17:40:00 23.9 C 51 % 13.15 C
1078 03-09-2019 17:45:00 23.9 C 50 % 12.85 C
1079 03-09-2019 17:50:00 23.9 C 50 % 12.85 C
1080 03-09-2019 17:55:00 23.8 C 50 % 12.76 C
1081 03-09-2019 18:00:00 23.7 C 51 % 12.97 C
1082 03-09-2019 18:05:00 23.6 C 51 % 12.88 C
1083 03-09-2019 18:10:00 23.8 C 51 % 13.06 C
1084 03-09-2019 18:15:00 23.8 C 51 % 13.06 C
1085 03-09-2019 18:20:00 23.6 C 52 % 13.17 C
1086 03-09-2019 18:25:00 23.4 C 52 % 12.99 C
1087 03-09-2019 18:30:00 23.2 C 52 % 12.8 C
1088 03-09-2019 18:35:00 23.1 C 53 % 13 C
1089 03-09-2019 18:40:00 22.9 C 54 % 13.1 C
1090 03-09-2019 18:45:00 22.8 C 54 % 13.01 C
1091 03-09-2019 18:50:00 22.6 C 54 % 12.83 C
1092 03-09-2019 18:55:00 22.2 C 56 % 13.01 C
1093 03-09-2019 19:00:00 21.8 C 56 % 12.64 C
1094 03-09-2019 19:05:00 21.6 C 57 % 12.72 C
1095 03-09-2019 19:10:00 21.4 C 58 % 12.8 C
1096 03-09-2019 19:15:00 21.4 C 58 % 12.8 C
1097 03-09-2019 19:20:00 21.4 C 59 % 13.06 C
1098 03-09-2019 19:25:00 21.4 C 59 % 13.06 C
1099 03-09-2019 19:30:00 21.3 C 58 % 12.71 C
1100 03-09-2019 19:35:00 21.1 C 59 % 12.78 C
Sensor: Nr:Datum:Temp:Feuchte:Taupunkt:
Aussen-T/F 1101 03-09-2019 19:40:00 20.8 C 59 % 12.5 C
1102 03-09-2019 19:45:00 20.6 C 60 % 12.57 C
1103 03-09-2019 19:50:00 20.4 C 61 % 12.63 C
1104 03-09-2019 19:55:00 20.2 C 61 % 12.44 C
1105 03-09-2019 20:00:00 20.1 C 62 % 12.6 C
1106 03-09-2019 20:05:00 19.9 C 62 % 12.41 C
1107 03-09-2019 20:10:00 19.7 C 63 % 12.46 C
1108 03-09-2019 20:15:00 19.6 C 64 % 12.61 C
1109 03-09-2019 20:20:00 19.4 C 64 % 12.42 C
1110 03-09-2019 20:25:00 19.2 C 65 % 12.47 C
1111 03-09-2019 20:30:00 18.9 C 66 % 12.41 C
1112 03-09-2019 20:35:00 18.6 C 67 % 12.36 C
1113 03-09-2019 20:40:00 18.2 C 68 % 12.2 C
1114 03-09-2019 20:45:00 17.9 C 69 % 12.14 C
1115 03-09-2019 20:50:00 17.6 C 70 % 12.07 C
1116 03-09-2019 20:55:00 17.3 C 71 % 12 C
1117 03-09-2019 21:00:00 17.1 C 72 % 12.02 C
1118 03-09-2019 21:05:00 16.9 C 73 % 12.03 C
1119 03-09-2019 21:10:00 16.8 C 73 % 11.94 C
1120 03-09-2019 21:15:00 16.6 C 74 % 11.95 C
1121 03-09-2019 21:20:00 16.4 C 74 % 11.76 C
1122 03-09-2019 21:25:00 16.3 C 75 % 11.86 C
1123 03-09-2019 21:30:00 16.2 C 76 % 11.97 C
1124 03-09-2019 21:35:00 16.1 C 76 % 11.87 C
1125 03-09-2019 21:40:00 16 C 76 % 11.77 C
Sensor: Nr:Datum:Temp:Feuchte:Taupunkt:
Aussen-T/F 1126 03-09-2019 21:45:00 15.9 C 77 % 11.88 C
1127 03-09-2019 21:50:00 15.8 C 77 % 11.78 C
1128 03-09-2019 21:55:00 15.8 C 77 % 11.78 C
1129 03-09-2019 22:00:00 15.7 C 78 % 11.88 C
1130 03-09-2019 22:05:00 15.7 C 78 % 11.88 C
1131 03-09-2019 22:10:00 15.6 C 78 % 11.78 C
1132 03-09-2019 22:15:00 15.6 C 78 % 11.78 C
1133 03-09-2019 22:20:00 15.5 C 79 % 11.88 C
1134 03-09-2019 22:25:00 15.4 C 79 % 11.78 C
1135 03-09-2019 22:30:00 15.3 C 79 % 11.68 C
1136 03-09-2019 22:35:00 15.2 C 80 % 11.78 C
1137 03-09-2019 22:40:00 15.2 C 80 % 11.78 C
1138 03-09-2019 22:45:00 15.1 C 80 % 11.68 C
1139 03-09-2019 22:50:00 14.9 C 81 % 11.67 C
1140 03-09-2019 22:55:00 14.8 C 81 % 11.57 C
1141 03-09-2019 23:00:00 14.7 C 81 % 11.48 C
1142 03-09-2019 23:05:00 14.6 C 82 % 11.56 C
1143 03-09-2019 23:10:00 14.4 C 82 % 11.37 C
1144 03-09-2019 23:15:00 14.3 C 82 % 11.27 C
1145 03-09-2019 23:20:00 14.2 C 83 % 11.36 C
1146 03-09-2019 23:25:00 14.1 C 83 % 11.26 C
1147 03-09-2019 23:30:00 13.9 C 84 % 11.24 C
1148 03-09-2019 23:35:00 13.9 C 84 % 11.24 C
1149 03-09-2019 23:40:00 13.8 C 84 % 11.15 C
1150 03-09-2019 23:45:00 13.7 C 85 % 11.23 C
Sensor: Nr:Datum:Temp:Feuchte:Taupunkt:
Aussen-T/F 1151 03-09-2019 23:50:00 13.6 C 85 % 11.13 C
1152 03-09-2019 23:55:00 13.4 C 85 % 10.93 C
1153 04-09-2019 00:00:00 13.4 C 86 % 11.11 C
1154 04-09-2019 00:05:00 13.3 C 86 % 11.01 C
1155 04-09-2019 00:10:00 13.3 C 86 % 11.01 C
1156 04-09-2019 00:15:00 13.2 C 86 % 10.91 C
1157 04-09-2019 00:20:00 13.1 C 87 % 10.99 C
1158 04-09-2019 00:25:00 13.1 C 87 % 10.99 C
1159 04-09-2019 00:30:00 13 C 87 % 10.89 C
1160 04-09-2019 00:35:00 12.9 C 87 % 10.79 C
1161 04-09-2019 00:40:00 12.9 C 88 % 10.96 C
1162 04-09-2019 00:45:00 12.9 C 88 % 10.96 C
1163 04-09-2019 00:50:00 12.8 C 88 % 10.86 C
1164 04-09-2019 00:55:00 12.7 C 88 % 10.77 C
1165 04-09-2019 01:00:00 12.7 C 88 % 10.77 C
1166 04-09-2019 01:05:00 12.6 C 88 % 10.67 C
1167 04-09-2019 01:10:00 12.5 C 89 % 10.74 C
1168 04-09-2019 01:15:00 12.4 C 89 % 10.64 C
1169 04-09-2019 01:20:00 12.4 C 89 % 10.64 C
1170 04-09-2019 01:25:00 12.3 C 90 % 10.71 C
1171 04-09-2019 01:30:00 12.3 C 90 % 10.71 C
1172 04-09-2019 01:35:00 12.3 C 90 % 10.71 C
1173 04-09-2019 01:40:00 12.2 C 90 % 10.61 C
1174 04-09-2019 01:45:00 12.2 C 90 % 10.61 C
1175 04-09-2019 01:50:00 12.2 C 90 % 10.61 C
Sensor: Nr:Datum:Temp:Feuchte:Taupunkt:
Aussen-T/F 1176 04-09-2019 01:55:00 12.1 C 90 % 10.51 C
1177 04-09-2019 02:00:00 12.1 C 90 % 10.51 C
1178 04-09-2019 02:05:00 12 C 90 % 10.41 C
1179 04-09-2019 02:10:00 12 C 90 % 10.41 C
1180 04-09-2019 02:15:00 11.9 C 90 % 10.31 C
1181 04-09-2019 02:20:00 11.9 C 91 % 10.48 C
1182 04-09-2019 02:25:00 11.9 C 91 % 10.48 C
1183 04-09-2019 02:30:00 11.9 C 91 % 10.48 C
1184 04-09-2019 02:35:00 11.8 C 91 % 10.38 C
1185 04-09-2019 02:40:00 11.8 C 91 % 10.38 C
1186 04-09-2019 02:45:00 11.7 C 91 % 10.28 C
1187 04-09-2019 02:50:00 11.7 C 91 % 10.28 C
1188 04-09-2019 02:55:00 11.6 C 91 % 10.18 C
1189 04-09-2019 03:00:00 11.6 C 91 % 10.18 C
1190 04-09-2019 03:05:00 11.5 C 92 % 10.25 C
1191 04-09-2019 03:10:00 11.4 C 92 % 10.15 C
1192 04-09-2019 03:15:00 11.4 C 92 % 10.15 C
1193 04-09-2019 03:20:00 11.4 C 92 % 10.15 C
1194 04-09-2019 03:25:00 11.3 C 92 % 10.05 C
1195 04-09-2019 03:30:00 11.3 C 92 % 10.05 C
1196 04-09-2019 03:35:00 11.3 C 92 % 10.05 C
1197 04-09-2019 03:40:00 11.2 C 92 % 9.95 C
1198 04-09-2019 03:45:00 11.2 C 92 % 9.95 C
1199 04-09-2019 03:50:00 11.2 C 92 % 9.95 C
1200 04-09-2019 03:55:00 11.1 C 92 % 9.85 C
Sensor: Nr:Datum:Temp:Feuchte:Taupunkt:
Aussen-T/F 1201 04-09-2019 04:00:00 11 C 92 % 9.75 C
1202 04-09-2019 04:05:00 10.9 C 92 % 9.65 C
1203 04-09-2019 04:10:00 10.8 C 92 % 9.55 C
1204 04-09-2019 04:15:00 10.8 C 92 % 9.55 C
1205 04-09-2019 04:20:00 10.7 C 92 % 9.45 C
1206 04-09-2019 04:25:00 10.7 C 93 % 9.62 C
1207 04-09-2019 04:30:00 10.7 C 93 % 9.62 C
1208 04-09-2019 04:35:00 10.6 C 93 % 9.52 C
1209 04-09-2019 04:40:00 10.6 C 93 % 9.52 C
1210 04-09-2019 04:45:00 10.7 C 93 % 9.62 C
1211 04-09-2019 04:50:00 10.7 C 93 % 9.62 C
1212 04-09-2019 04:55:00 10.7 C 93 % 9.62 C
1213 04-09-2019 05:00:00 10.6 C 93 % 9.52 C
1214 04-09-2019 05:05:00 10.6 C 93 % 9.52 C
1215 04-09-2019 05:10:00 10.4 C 93 % 9.32 C
1216 04-09-2019 05:15:00 10.4 C 93 % 9.32 C
1217 04-09-2019 05:20:00 10.4 C 94 % 9.48 C
1218 04-09-2019 05:25:00 10.4 C 93 % 9.32 C
1219 04-09-2019 05:30:00 10.3 C 94 % 9.38 C
1220 04-09-2019 05:35:00 10.3 C 94 % 9.38 C
1221 04-09-2019 05:40:00 10.3 C 94 % 9.38 C
1222 04-09-2019 05:45:00 10.3 C 94 % 9.38 C
1223 04-09-2019 05:50:00 10.2 C 94 % 9.28 C
1224 04-09-2019 05:55:00 10.2 C 94 % 9.28 C
1225 04-09-2019 06:00:00 10.2 C 94 % 9.28 C
Sensor: Nr:Datum:Temp:Feuchte:Taupunkt:
Aussen-T/F 1226 04-09-2019 06:05:00 10.1 C 94 % 9.18 C
1227 04-09-2019 06:10:00 10.1 C 94 % 9.18 C
1228 04-09-2019 06:15:00 10.1 C 94 % 9.18 C
1229 04-09-2019 06:20:00 10 C 94 % 9.08 C
1230 04-09-2019 06:25:00 10 C 94 % 9.08 C
1231 04-09-2019 06:30:00 10.1 C 94 % 9.18 C
1232 04-09-2019 06:35:00 10.2 C 94 % 9.28 C
1233 04-09-2019 06:40:00 10.3 C 95 % 9.54 C
1234 04-09-2019 06:45:00 10.3 C 95 % 9.54 C
1235 04-09-2019 06:50:00 10.3 C 95 % 9.54 C
1236 04-09-2019 06:55:00 10.2 C 94 % 9.28 C
1237 04-09-2019 07:00:00 10.2 C 94 % 9.28 C
1238 04-09-2019 07:05:00 10.1 C 94 % 9.18 C
1239 04-09-2019 07:10:00 10.1 C 94 % 9.18 C
1240 04-09-2019 07:15:00 10.1 C 95 % 9.34 C
1241 04-09-2019 07:20:00 10.1 C 95 % 9.34 C
1242 04-09-2019 07:25:00 10.1 C 95 % 9.34 C
1243 04-09-2019 07:30:00 10 C 95 % 9.24 C
1244 04-09-2019 07:35:00 10 C 95 % 9.24 C
1245 04-09-2019 07:40:00 10.1 C 95 % 9.34 C
1246 04-09-2019 07:45:00 10.1 C 95 % 9.34 C
1247 04-09-2019 07:50:00 10.1 C 95 % 9.34 C
1248 04-09-2019 07:55:00 10.1 C 95 % 9.34 C
1249 04-09-2019 08:00:00 10.2 C 95 % 9.44 C
1250 04-09-2019 08:05:00 10.2 C 95 % 9.44 C
Sensor: Nr:Datum:Temp:Feuchte:Taupunkt:
Aussen-T/F 1251 04-09-2019 08:10:00 10.3 C 95 % 9.54 C
1252 04-09-2019 08:15:00 10.3 C 95 % 9.54 C
1253 04-09-2019 08:20:00 10.4 C 95 % 9.63 C
1254 04-09-2019 08:25:00 10.5 C 95 % 9.73 C
1255 04-09-2019 08:30:00 10.6 C 95 % 9.83 C
1256 04-09-2019 08:35:00 10.7 C 95 % 9.93 C
1257 04-09-2019 08:40:00 10.8 C 96 % 10.19 C
1258 04-09-2019 08:45:00 11.1 C 96 % 10.49 C
1259 04-09-2019 08:50:00 11.3 C 96 % 10.69 C
1260 04-09-2019 08:55:00 11.7 C 96 % 11.08 C
1261 04-09-2019 09:00:00 11.9 C 96 % 11.28 C
1262 04-09-2019 09:05:00 12.2 C 96 % 11.58 C
1263 04-09-2019 09:10:00 12.4 C 96 % 11.78 C
1264 04-09-2019 09:15:00 12.7 C 95 % 11.92 C
1265 04-09-2019 09:20:00 12.9 C 94 % 11.96 C
1266 04-09-2019 09:25:00 13.1 C 92 % 11.83 C
1267 04-09-2019 09:30:00 13.3 C 92 % 12.03 C
1268 04-09-2019 09:35:00 13.4 C 91 % 11.96 C
1269 04-09-2019 09:40:00 13.7 C 90 % 12.09 C
1270 04-09-2019 09:45:00 13.8 C 89 % 12.02 C
1271 04-09-2019 09:50:00 13.9 C 88 % 11.95 C
1272 04-09-2019 09:55:00 14.1 C 88 % 12.14 C
1273 04-09-2019 10:00:00 14.1 C 87 % 11.97 C
1274 04-09-2019 10:05:00 14.2 C 87 % 12.07 C
1275 04-09-2019 10:10:00 14.3 C 87 % 12.17 C
Sensor: Nr:Datum:Temp:Feuchte:Taupunkt:
Aussen-T/F 1276 04-09-2019 10:15:00 14.4 C 87 % 12.27 C
1277 04-09-2019 10:20:00 14.4 C 87 % 12.27 C
1278 04-09-2019 10:25:00 14.4 C 87 % 12.27 C
1279 04-09-2019 10:30:00 14.7 C 86 % 12.38 C
1280 04-09-2019 10:35:00 14.9 C 86 % 12.58 C
1281 04-09-2019 10:40:00 15.3 C 84 % 12.61 C
1282 04-09-2019 10:45:00 15.7 C 83 % 12.82 C
1283 04-09-2019 10:50:00 15.9 C 83 % 13.02 C
1284 04-09-2019 10:55:00 16.2 C 81 % 12.94 C
1285 04-09-2019 11:00:00 16.5 C 80 % 13.04 C
1286 04-09-2019 11:05:00 16.8 C 79 % 13.14 C
1287 04-09-2019 11:10:00 17.1 C 77 % 13.04 C
1288 04-09-2019 11:15:00 17.6 C 75 % 13.12 C
1289 04-09-2019 11:20:00 17.9 C 73 % 12.99 C
1290 04-09-2019 11:25:00 18.2 C 72 % 13.07 C
1291 04-09-2019 11:30:00 18.4 C 72 % 13.26 C
1292 04-09-2019 11:35:00 18.7 C 70 % 13.12 C
1293 04-09-2019 11:40:00 18.8 C 69 % 13 C
1294 04-09-2019 11:45:00 18.9 C 69 % 13.09 C
1295 04-09-2019 11:50:00 19.1 C 68 % 13.06 C
1296 04-09-2019 11:55:00 19.1 C 68 % 13.06 C
1297 04-09-2019 12:00:00 19.2 C 67 % 12.93 C
1298 04-09-2019 12:05:00 19.3 C 68 % 13.25 C
1299 04-09-2019 12:10:00 19.4 C 66 % 12.89 C
1300 04-09-2019 12:15:00 19.5 C 67 % 13.21 C
Sensor: Nr:Datum:Temp:Feuchte:Taupunkt:
Aussen-T/F 1301 04-09-2019 12:20:00 19.6 C 67 % 13.31 C
1302 04-09-2019 12:25:00 19.7 C 66 % 13.17 C
1303 04-09-2019 12:30:00 19.8 C 66 % 13.27 C
1304 04-09-2019 12:35:00 19.9 C 66 % 13.36 C
1305 04-09-2019 12:40:00 20.1 C 65 % 13.32 C
1306 04-09-2019 12:45:00 20.2 C 64 % 13.18 C
1307 04-09-2019 12:50:00 20.3 C 64 % 13.27 C
1308 04-09-2019 12:55:00 20.4 C 65 % 13.6 C
1309 04-09-2019 13:00:00 20.5 C 64 % 13.46 C
1310 04-09-2019 13:05:00 20.7 C 64 % 13.65 C
1311 04-09-2019 13:10:00 20.7 C 63 % 13.41 C
1312 04-09-2019 13:15:00 20.8 C 64 % 13.74 C
1313 04-09-2019 13:20:00 20.9 C 63 % 13.6 C
1314 04-09-2019 13:25:00 21.2 C 62 % 13.63 C
1315 04-09-2019 13:30:00 21.3 C 61 % 13.48 C
1316 04-09-2019 13:35:00 21.4 C 61 % 13.57 C
1317 04-09-2019 13:40:00 21.4 C 61 % 13.57 C
1318 04-09-2019 13:45:00 21.6 C 61 % 13.76 C
1319 04-09-2019 13:50:00 21.7 C 60 % 13.6 C
1320 04-09-2019 13:55:00 21.8 C 60 % 13.69 C
1321 04-09-2019 14:00:00 21.9 C 59 % 13.53 C
1322 04-09-2019 14:05:00 22.1 C 60 % 13.98 C
1323 04-09-2019 14:10:00 22.2 C 59 % 13.81 C
1324 04-09-2019 14:15:00 22.2 C 58 % 13.55 C
1325 04-09-2019 14:20:00 22.4 C 59 % 14 C
Sensor: Nr:Datum:Temp:Feuchte:Taupunkt:
Aussen-T/F 1326 04-09-2019 14:25:00 22.5 C 58 % 13.83 C
1327 04-09-2019 14:30:00 22.6 C 57 % 13.65 C
1328 04-09-2019 14:35:00 22.7 C 56 % 13.47 C
1329 04-09-2019 14:40:00 22.9 C 57 % 13.93 C
1330 04-09-2019 14:45:00 23.1 C 56 % 13.85 C
1331 04-09-2019 14:50:00 23.2 C 56 % 13.94 C
1332 04-09-2019 14:55:00 23.3 C 56 % 14.03 C
1333 04-09-2019 15:00:00 23.4 C 55 % 13.85 C
1334 04-09-2019 15:05:00 23.4 C 56 % 14.13 C
1335 04-09-2019 15:10:00 23.7 C 53 % 13.56 C
1336 04-09-2019 15:15:00 23.7 C 54 % 13.84 C
1337 04-09-2019 15:20:00 23.7 C 53 % 13.56 C
1338 04-09-2019 15:25:00 23.7 C 54 % 13.84 C
1339 04-09-2019 15:30:00 23.9 C 53 % 13.74 C
1340 04-09-2019 15:35:00 24 C 53 % 13.83 C
1341 04-09-2019 15:40:00 24.1 C 52 % 13.63 C
1342 04-09-2019 15:45:00 24.1 C 53 % 13.93 C
1343 04-09-2019 15:50:00 24.1 C 53 % 13.93 C
1344 04-09-2019 15:55:00 24.4 C 53 % 14.2 C
1345 04-09-2019 16:00:00 24.5 C 51 % 13.7 C
1346 04-09-2019 16:05:00 24.4 C 53 % 14.2 C
1347 04-09-2019 16:10:00 24.6 C 53 % 14.39 C
1348 04-09-2019 16:15:00 24.7 C 53 % 14.48 C
1349 04-09-2019 16:20:00 24.8 C 52 % 14.28 C
1350 04-09-2019 16:25:00 24.9 C 51 % 14.07 C
Sensor: Nr:Datum:Temp:Feuchte:Taupunkt:
Aussen-T/F 1351 04-09-2019 16:30:00 25.1 C 51 % 14.25 C
1352 04-09-2019 16:35:00 25.4 C 50 % 14.22 C
1353 04-09-2019 16:40:00 25.7 C 48 % 13.87 C
1354 04-09-2019 16:45:00 25.7 C 49 % 14.19 C
1355 04-09-2019 16:50:00 25.7 C 49 % 14.19 C
1356 04-09-2019 16:55:00 25.9 C 48 % 14.05 C
1357 04-09-2019 17:00:00 26.2 C 48 % 14.32 C
1358 04-09-2019 17:05:00 26.5 C 48 % 14.6 C
1359 04-09-2019 17:10:00 26.8 C 47 % 14.55 C
1360 04-09-2019 17:15:00 26.8 C 46 % 14.21 C
1361 04-09-2019 17:20:00 27 C 44 % 13.71 C
1362 04-09-2019 17:25:00 27.1 C 45 % 14.15 C
1363 04-09-2019 17:30:00 27.3 C 44 % 13.98 C
1364 04-09-2019 17:35:00 27.1 C 44 % 13.8 C
1365 04-09-2019 17:40:00 27.1 C 42 % 13.09 C
1366 04-09-2019 17:45:00 26.9 C 43 % 13.27 C
1367 04-09-2019 17:50:00 26.9 C 43 % 13.27 C
1368 04-09-2019 17:55:00 26.8 C 44 % 13.53 C
1369 04-09-2019 18:00:00 26.6 C 44 % 13.35 C
1370 04-09-2019 18:05:00 26.2 C 43 % 12.64 C
1371 04-09-2019 18:10:00 25.8 C 44 % 12.63 C
1372 04-09-2019 18:15:00 25.4 C 46 % 12.94 C
1373 04-09-2019 18:20:00 25.1 C 48 % 13.32 C
1374 04-09-2019 18:25:00 24.9 C 47 % 12.82 C
1375 04-09-2019 18:30:00 24.8 C 47 % 12.73 C
Sensor: Nr:Datum:Temp:Feuchte:Taupunkt:
Aussen-T/F 1376 04-09-2019 18:35:00 24.6 C 48 % 12.87 C
1377 04-09-2019 18:40:00 24.4 C 49 % 13 C
1378 04-09-2019 18:45:00 24.3 C 49 % 12.91 C
1379 04-09-2019 18:50:00 24.2 C 50 % 13.12 C
1380 04-09-2019 18:55:00 24.2 C 49 % 12.81 C
1381 04-09-2019 19:00:00 24.2 C 50 % 13.12 C
1382 04-09-2019 19:05:00 24.1 C 50 % 13.03 C
1383 04-09-2019 19:10:00 24 C 51 % 13.24 C
1384 04-09-2019 19:15:00 23.9 C 51 % 13.15 C
1385 04-09-2019 19:20:00 23.8 C 51 % 13.06 C
1386 04-09-2019 19:25:00 23.7 C 52 % 13.26 C
1387 04-09-2019 19:30:00 23.6 C 51 % 12.88 C
1388 04-09-2019 19:35:00 23.6 C 52 % 13.17 C
1389 04-09-2019 19:40:00 23.4 C 53 % 13.28 C
1390 04-09-2019 19:45:00 23.3 C 54 % 13.47 C
1391 04-09-2019 19:50:00 23.1 C 54 % 13.29 C
1392 04-09-2019 19:55:00 22.3 C 58 % 13.64 C
1393 04-09-2019 20:00:00 21.4 C 61 % 13.57 C
1394 04-09-2019 20:05:00 20.8 C 63 % 13.5 C
1395 04-09-2019 20:10:00 20.4 C 65 % 13.6 C
1396 04-09-2019 20:15:00 20 C 67 % 13.69 C
1397 04-09-2019 20:20:00 19.7 C 69 % 13.86 C
1398 04-09-2019 20:25:00 19.6 C 70 % 13.98 C
1399 04-09-2019 20:30:00 19.5 C 70 % 13.89 C
1400 04-09-2019 20:35:00 19.4 C 71 % 14.01 C
Sensor: Nr:Datum:Temp:Feuchte:Taupunkt:
Aussen-T/F 1401 04-09-2019 20:40:00 19.3 C 71 % 13.91 C
1402 04-09-2019 20:45:00 19.3 C 73 % 14.34 C
1403 04-09-2019 20:50:00 19.3 C 76 % 14.97 C
1404 04-09-2019 20:55:00 19.1 C 77 % 14.97 C
1405 04-09-2019 21:00:00 18.8 C 79 % 15.08 C
1406 04-09-2019 21:05:00 18.6 C 81 % 15.28 C
1407 04-09-2019 21:10:00 18.3 C 82 % 15.17 C
1408 04-09-2019 21:15:00 18.1 C 84 % 15.35 C
1409 04-09-2019 21:20:00 17.9 C 85 % 15.34 C
1410 04-09-2019 21:25:00 17.6 C 85 % 15.05 C
1411 04-09-2019 21:30:00 17.4 C 86 % 15.03 C
1412 04-09-2019 21:35:00 17.3 C 87 % 15.12 C
1413 04-09-2019 21:40:00 17.1 C 87 % 14.92 C
1414 04-09-2019 21:45:00 16.9 C 88 % 14.9 C
1415 04-09-2019 21:50:00 16.8 C 88 % 14.8 C
1416 04-09-2019 21:55:00 16.7 C 88 % 14.7 C
1417 04-09-2019 22:00:00 16.7 C 89 % 14.88 C
1418 04-09-2019 22:05:00 16.6 C 89 % 14.78 C
1419 04-09-2019 22:10:00 16.6 C 90 % 14.95 C
1420 04-09-2019 22:15:00 16.4 C 90 % 14.76 C
1421 04-09-2019 22:20:00 16.4 C 90 % 14.76 C
1422 04-09-2019 22:25:00 16.3 C 90 % 14.66 C
1423 04-09-2019 22:30:00 16.2 C 91 % 14.73 C
1424 04-09-2019 22:35:00 16.2 C 91 % 14.73 C
1425 04-09-2019 22:40:00 16.2 C 91 % 14.73 C
Sensor: Nr:Datum:Temp:Feuchte:Taupunkt:
Aussen-T/F 1426 04-09-2019 22:45:00 16.1 C 91 % 14.63 C
1427 04-09-2019 22:50:00 15.9 C 91 % 14.43 C
1428 04-09-2019 22:55:00 15.8 C 91 % 14.33 C
1429 04-09-2019 23:00:00 15.8 C 90 % 14.16 C
1430 04-09-2019 23:05:00 15.7 C 91 % 14.24 C
1431 04-09-2019 23:10:00 15.7 C 91 % 14.24 C
1432 04-09-2019 23:15:00 15.7 C 91 % 14.24 C
1433 04-09-2019 23:20:00 15.6 C 91 % 14.14 C
1434 04-09-2019 23:25:00 15.6 C 91 % 14.14 C
1435 04-09-2019 23:30:00 15.6 C 91 % 14.14 C
1436 04-09-2019 23:35:00 15.6 C 91 % 14.14 C
1437 04-09-2019 23:40:00 15.6 C 91 % 14.14 C
1438 04-09-2019 23:45:00 15.6 C 91 % 14.14 C
1439 04-09-2019 23:50:00 15.6 C 91 % 14.14 C
1440 04-09-2019 23:55:00 15.6 C 91 % 14.14 C

Legende:
   Min
   Max


Maximal/Minimal-Werte vom 31.08.2019 - 04.09.2019

Sensor Min Max Avg
Temp
(Aussen-T/F)
8.5 °C
03-09-2019  07:00:00
34.3 °C
31-08-2019  17:20:00
17.75 °C
Feuchte
(Aussen-T/F)
36 %
02-09-2019  17:50:00
96 %
04-09-2019  08:40:00
72.72 %
Taupunkt
(Aussen-T/F)
6.63 C
03-09-2019  07:00:00
20.02 C
31-08-2019  18:50:00
12.23 C

Die Daten stammen von einer Davis Vantage Pro 2 Wetter-Station und werden unter Linux mit der Software wview2wettercgi und aufbereitet. Alle Angaben erfolgen ohne Gewähr für ihre Vollständigkeit oder Richtigkeit.
Kontakt: Rainer Krienke krienke@uni-koblenz.de . Meine Webseiten an der Uni Koblenz oder privat.
Version: $Revision: 0.78 $